Time,TemperatureF,DewpointF,PressureIn,WindDirection,WindDirectionDegrees,WindSpeedMPH,WindSpeedGustMPH,Humidity,HourlyPrecipIn,Conditions,Clouds,dailyrainin,SolarRadiationWatts/m^2,SoftwareType,DateUTC
2016-02-12 00:00:00,7.6,7.6,30.24,SSW,209,0.0,0.0,100,0.00,,FEW050,0.00,0.00,VWS V15.00,2016-02-12 05:00:00,
2016-02-12 00:01:00,7.6,7.6,30.24,SSW,209,0.0,0.0,100,0.00,,FEW050,0.00,0.00,VWS V15.00,2016-02-12 05:01:00,
2016-02-12 00:02:00,7.7,7.7,30.24,SSW,209,0.0,0.0,100,0.00,,FEW050,0.00,0.00,VWS V15.00,2016-02-12 05:02:00,
2016-02-12 00:03:00,7.4,7.4,30.24,SSW,209,0.0,0.0,100,0.00,,FEW050,0.00,0.00,VWS V15.00,2016-02-12 05:03:00,
2016-02-12 00:04:00,7.4,7.4,30.24,SSW,209,0.0,0.0,100,0.00,,FEW050,0.00,0.00,VWS V15.00,2016-02-12 05:04:00,
2016-02-12 00:05:00,7.4,7.4,30.24,SSW,209,0.0,0.0,100,0.00,,FEW050,0.00,0.00,VWS V15.00,2016-02-12 05:05:00,
2016-02-12 00:06:00,7.4,7.4,30.24,SSW,200,0.0,0.0,100,0.00,,FEW050,0.00,0.00,VWS V15.00,2016-02-12 05:06:00,
2016-02-12 00:07:00,7.7,7.7,30.24,SSW,209,0.0,0.0,100,0.00,,FEW050,0.00,0.00,VWS V15.00,2016-02-12 05:07:00,
2016-02-12 00:08:00,7.2,7.2,30.24,SSW,209,0.0,0.0,100,0.00,,FEW050,0.00,0.00,VWS V15.00,2016-02-12 05:08:00,
2016-02-12 00:09:00,7.2,7.2,30.24,SSW,209,0.0,0.0,100,0.00,,FEW050,0.00,0.00,VWS V15.00,2016-02-12 05:09:00,
2016-02-12 00:10:00,7.2,7.2,30.24,SSW,209,0.0,0.0,100,0.00,,FEW050,0.00,0.00,VWS V15.00,2016-02-12 05:10:00,
2016-02-12 00:11:00,7.2,7.2,30.24,SSW,209,0.0,0.0,100,0.00,,FEW050,0.00,0.00,VWS V15.00,2016-02-12 05:11:00,
2016-02-12 00:12:00,7.6,7.6,30.24,SSW,209,0.0,0.0,100,0.00,,FEW050,0.00,0.00,VWS V15.00,2016-02-12 05:12:00,
2016-02-12 00:13:00,7.0,7.0,30.24,SSW,209,0.0,0.0,100,0.00,,FEW050,0.00,0.00,VWS V15.00,2016-02-12 05:13:00,
2016-02-12 00:14:00,7.0,7.0,30.24,SSW,209,0.0,0.0,100,0.00,,FEW050,0.00,0.00,VWS V15.00,2016-02-12 05:14:00,
2016-02-12 00:15:00,7.0,7.0,30.24,SSW,209,0.0,0.0,100,0.00,,FEW050,0.00,0.00,VWS V15.00,2016-02-12 05:15:00,
2016-02-12 00:16:00,7.0,7.0,30.24,SSW,209,0.0,0.0,100,0.00,,FEW050,0.00,0.00,VWS V15.00,2016-02-12 05:16:00,
2016-02-12 00:17:00,7.2,7.2,30.24,SSW,209,0.0,0.0,100,0.00,,FEW050,0.00,0.00,VWS V15.00,2016-02-12 05:17:00,
2016-02-12 00:18:00,7.0,7.0,30.24,SSW,209,0.0,0.0,100,0.00,,FEW050,0.00,0.00,VWS V15.00,2016-02-12 05:18:00,
2016-02-12 00:19:00,6.9,6.9,30.24,SSW,209,0.0,0.0,100,0.00,,FEW050,0.00,0.00,VWS V15.00,2016-02-12 05:19:00,
2016-02-12 00:20:00,6.9,6.9,30.24,SSW,209,0.0,0.0,100,0.00,,FEW050,0.00,0.00,VWS V15.00,2016-02-12 05:20:00,
2016-02-12 00:21:00,6.9,6.9,30.24,SSW,209,0.0,0.0,100,0.00,,FEW050,0.00,0.00,VWS V15.00,2016-02-12 05:21:00,
2016-02-12 00:22:00,7.2,7.2,30.24,SSW,209,0.0,0.0,100,0.00,,FEW050,0.00,0.00,VWS V15.00,2016-02-12 05:22:00,
2016-02-12 00:23:00,6.9,6.9,30.24,SSW,209,0.0,0.0,100,0.00,,FEW050,0.00,0.00,VWS V15.00,2016-02-12 05:23:00,
2016-02-12 00:24:00,6.9,6.9,30.24,SSW,209,0.0,0.0,100,0.00,,FEW050,0.00,0.00,VWS V15.00,2016-02-12 05:24:00,
2016-02-12 00:25:00,6.9,6.9,30.24,SSW,209,0.0,0.0,100,0.00,,FEW050,0.00,0.00,VWS V15.00,2016-02-12 05:25:00,
2016-02-12 00:26:00,6.9,6.9,30.24,SSW,209,0.0,0.0,100,0.00,,FEW050,0.00,0.00,VWS V15.00,2016-02-12 05:26:00,
2016-02-12 00:27:00,7.0,7.0,30.24,SSW,209,0.0,0.0,100,0.00,,FEW050,0.00,0.00,VWS V15.00,2016-02-12 05:27:00,
2016-02-12 00:28:00,6.9,6.9,30.24,SSW,209,0.0,0.0,100,0.00,,FEW050,0.00,0.00,VWS V15.00,2016-02-12 05:28:00,
2016-02-12 00:29:00,6.9,6.9,30.24,SSW,209,0.0,0.0,100,0.00,,FEW050,0.00,0.00,VWS V15.00,2016-02-12 05:29:00,
2016-02-12 00:30:00,6.7,6.7,30.24,SSW,209,0.0,0.0,100,0.00,,FEW050,0.00,0.00,VWS V15.00,2016-02-12 05:30:00,
2016-02-12 00:31:00,6.7,6.7,30.24,SSW,200,0.0,0.0,100,0.00,,FEW050,0.00,0.00,VWS V15.00,2016-02-12 05:31:00,
2016-02-12 00:32:00,6.9,6.9,30.24,SSW,209,0.0,0.0,100,0.00,,FEW050,0.00,0.00,VWS V15.00,2016-02-12 05:32:00,
2016-02-12 00:33:00,6.7,6.7,30.24,SSW,209,0.0,0.0,100,0.00,,FEW050,0.00,0.00,VWS V15.00,2016-02-12 05:33:00,
2016-02-12 00:34:00,6.7,6.7,30.24,SSW,209,0.0,0.0,100,0.00,,FEW050,0.00,0.00,VWS V15.00,2016-02-12 05:34:00,
2016-02-12 00:35:00,6.7,6.7,30.24,SSW,209,0.0,0.0,100,0.00,,FEW050,0.00,0.00,VWS V15.00,2016-02-12 05:35:00,
2016-02-12 00:36:00,6.7,6.7,30.24,SSW,209,0.0,0.0,100,0.00,,FEW050,0.00,0.00,VWS V15.00,2016-02-12 05:36:00,
2016-02-12 00:37:00,6.9,6.9,30.24,SSW,209,0.0,0.0,100,0.00,,FEW050,0.00,0.00,VWS V15.00,2016-02-12 05:37:00,
2016-02-12 00:38:00,6.7,6.7,30.24,SSW,209,0.0,0.0,100,0.00,,FEW050,0.00,0.00,VWS V15.00,2016-02-12 05:38:00,
2016-02-12 00:39:00,6.7,6.7,30.24,SSW,209,0.0,0.0,100,0.00,,FEW050,0.00,0.00,VWS V15.00,2016-02-12 05:39:00,
2016-02-12 00:41:00,6.7,6.7,30.24,SSW,209,0.0,0.0,100,0.00,,FEW050,0.00,0.00,VWS V15.00,2016-02-12 05:41:00,
2016-02-12 00:42:00,6.7,6.7,30.24,SSW,209,0.0,0.0,100,0.00,,FEW050,0.00,0.00,VWS V15.00,2016-02-12 05:42:00,
2016-02-12 00:43:00,6.7,6.7,30.24,SSW,209,0.0,0.0,100,0.00,,FEW050,0.00,0.00,VWS V15.00,2016-02-12 05:43:00,
2016-02-12 00:44:00,6.7,6.7,30.24,SSW,209,0.0,0.0,100,0.00,,FEW050,0.00,0.00,VWS V15.00,2016-02-12 05:44:00,
2016-02-12 00:45:00,6.7,6.7,30.24,SSW,209,0.0,0.0,100,0.00,,FEW050,0.00,0.00,VWS V15.00,2016-02-12 05:45:00,
2016-02-12 00:46:00,6.7,6.7,30.24,SSW,209,0.0,0.0,100,0.00,,FEW050,0.00,0.00,VWS V15.00,2016-02-12 05:46:00,
2016-02-12 00:47:00,6.7,6.7,30.24,SSW,209,0.0,0.0,100,0.00,,FEW050,0.00,0.00,VWS V15.00,2016-02-12 05:47:00,
2016-02-12 00:48:00,6.7,6.7,30.24,SSW,209,0.0,0.0,100,0.00,,FEW050,0.00,0.00,VWS V15.00,2016-02-12 05:48:00,
2016-02-12 00:49:00,6.7,6.7,30.24,SSW,209,0.0,0.0,100,0.00,,FEW050,0.00,0.00,VWS V15.00,2016-02-12 05:49:00,
2016-02-12 00:50:00,6.7,6.7,30.24,SSW,209,0.0,0.0,100,0.00,,FEW050,0.00,0.00,VWS V15.00,2016-02-12 05:50:00,
2016-02-12 00:51:00,6.5,6.5,30.24,SSW,209,0.0,0.0,100,0.00,,SCT055,0.00,0.00,VWS V15.00,2016-02-12 05:51:00,
2016-02-12 00:52:00,6.7,6.7,30.24,SSW,209,0.0,0.0,100,0.00,,FEW050,0.00,0.00,VWS V15.00,2016-02-12 05:52:00,
2016-02-12 00:53:00,6.5,6.5,30.24,SSW,209,0.0,0.0,100,0.00,,SCT055,0.00,0.00,VWS V15.00,2016-02-12 05:53:00,
2016-02-12 00:54:00,6.5,6.5,30.24,SSW,209,0.0,0.0,100,0.00,,SCT055,0.00,0.00,VWS V15.00,2016-02-12 05:54:00,
2016-02-12 00:55:00,6.5,6.5,30.24,SSW,209,0.0,0.0,100,0.00,,SCT055,0.00,0.00,VWS V15.00,2016-02-12 05:55:00,
2016-02-12 00:56:00,6.5,6.5,30.24,SSW,209,0.0,0.0,100,0.00,,SCT055,0.00,0.00,VWS V15.00,2016-02-12 05:56:00,
2016-02-12 00:57:00,6.7,6.7,30.24,SSW,209,0.0,0.0,100,0.00,,FEW050,0.00,0.00,VWS V15.00,2016-02-12 05:57:00,
2016-02-12 00:58:00,6.3,6.3,30.24,SSW,209,0.0,0.0,100,0.00,,SCT055,0.00,0.00,VWS V15.00,2016-02-12 05:58:00,
2016-02-12 00:59:00,6.3,6.3,30.23,SSW,209,0.0,0.0,100,0.00,,SCT055,0.00,0.00,VWS V15.00,2016-02-12 05:59:00,
2016-02-12 01:00:00,6.3,6.3,30.23,SSW,209,0.0,0.0,100,0.00,,SCT055,0.00,0.00,VWS V15.00,2016-02-12 06:00:00,
2016-02-12 01:01:00,6.3,6.3,30.23,SSW,209,0.0,0.0,100,0.00,,SCT055,0.00,0.00,VWS V15.00,2016-02-12 06:01:00,
2016-02-12 01:02:00,6.3,6.3,30.23,SSW,209,0.0,0.0,100,0.00,,SCT055,0.00,0.00,VWS V15.00,2016-02-12 06:02:00,
2016-02-12 01:03:00,6.1,6.1,30.23,SSW,209,0.0,0.0,100,0.00,,SCT055,0.00,0.00,VWS V15.00,2016-02-12 06:03:00,
2016-02-12 01:04:00,6.1,6.1,30.23,SSW,209,0.0,0.0,100,0.00,,SCT055,0.00,0.00,VWS V15.00,2016-02-12 06:04:00,
2016-02-12 01:05:00,6.1,6.1,30.23,SSW,209,0.0,0.0,100,0.00,,SCT055,0.00,0.00,VWS V15.00,2016-02-12 06:05:00,
2016-02-12 01:06:00,6.1,6.1,30.23,SSW,209,0.0,0.0,100,0.00,,SCT055,0.00,0.00,VWS V15.00,2016-02-12 06:06:00,
2016-02-12 01:07:00,6.3,6.3,30.24,SSW,209,0.0,0.0,100,0.00,,SCT055,0.00,0.00,VWS V15.00,2016-02-12 06:07:00,
2016-02-12 01:08:00,6.1,6.1,30.23,SSW,209,0.0,0.0,100,0.00,,SCT055,0.00,0.00,VWS V15.00,2016-02-12 06:08:00,
2016-02-12 01:09:00,6.0,6.0,30.23,SSW,209,0.0,0.0,100,0.00,,SCT055,0.00,0.00,VWS V15.00,2016-02-12 06:09:00,
2016-02-12 01:10:00,6.0,6.0,30.23,SSW,209,0.0,0.0,100,0.00,,SCT055,0.00,0.00,VWS V15.00,2016-02-12 06:10:00,
2016-02-12 01:11:00,6.0,6.0,30.23,SSW,209,0.0,0.0,100,0.00,,SCT055,0.00,0.00,VWS V15.00,2016-02-12 06:11:00,
2016-02-12 01:12:00,6.3,6.3,30.23,SSW,209,0.0,0.0,100,0.00,,SCT055,0.00,0.00,VWS V15.00,2016-02-12 06:12:00,
2016-02-12 01:13:00,6.0,6.0,30.23,SSW,209,0.0,0.0,100,0.00,,SCT055,0.00,0.00,VWS V15.00,2016-02-12 06:13:00,
2016-02-12 01:14:00,6.0,6.0,30.22,SSW,209,0.0,0.0,100,0.00,,SCT055,0.00,0.00,VWS V15.00,2016-02-12 06:14:00,
2016-02-12 01:15:00,6.0,6.0,30.22,SSW,209,0.0,0.0,100,0.00,,SCT055,0.00,0.00,VWS V15.00,2016-02-12 06:15:00,
2016-02-12 01:16:00,6.0,6.0,30.22,SSW,209,0.0,0.0,100,0.00,,SCT055,0.00,0.00,VWS V15.00,2016-02-12 06:16:00,
2016-02-12 01:17:00,6.1,6.1,30.23,SSW,209,0.0,0.0,100,0.00,,SCT055,0.00,0.00,VWS V15.00,2016-02-12 06:17:00,
2016-02-12 01:18:00,6.0,6.0,30.22,SSW,209,0.0,0.0,100,0.00,,SCT055,0.00,0.00,VWS V15.00,2016-02-12 06:18:00,
2016-02-12 01:19:00,6.1,6.1,30.22,SSW,209,0.0,0.0,100,0.00,,SCT055,0.00,0.00,VWS V15.00,2016-02-12 06:19:00,
2016-02-12 01:20:00,6.1,6.1,30.22,SSW,209,0.0,0.0,100,0.00,,SCT055,0.00,0.00,VWS V15.00,2016-02-12 06:20:00,
2016-02-12 01:21:00,6.3,6.3,30.22,SSW,200,0.0,0.0,100,0.00,,SCT055,0.00,0.00,VWS V15.00,2016-02-12 06:21:00,
2016-02-12 01:22:00,6.0,6.0,30.23,SSW,209,0.0,0.0,100,0.00,,SCT055,0.00,0.00,VWS V15.00,2016-02-12 06:22:00,
2016-02-12 01:23:00,6.3,6.3,30.22,SSW,209,0.0,0.0,100,0.00,,SCT055,0.00,0.00,VWS V15.00,2016-02-12 06:23:00,
2016-02-12 01:24:00,6.5,6.5,30.22,SSW,209,0.0,0.0,100,0.00,,SCT055,0.00,0.00,VWS V15.00,2016-02-12 06:24:00,
2016-02-12 01:25:00,6.5,6.5,30.22,SSW,209,0.0,0.0,100,0.00,,SCT055,0.00,0.00,VWS V15.00,2016-02-12 06:25:00,
2016-02-12 01:26:00,6.7,6.7,30.22,SSW,209,0.0,0.0,100,0.00,,SCT055,0.00,0.00,VWS V15.00,2016-02-12 06:26:00,
2016-02-12 01:27:00,6.0,6.0,30.22,SSW,209,0.0,0.0,100,0.00,,SCT055,0.00,0.00,VWS V15.00,2016-02-12 06:27:00,
2016-02-12 01:28:00,6.7,6.7,30.22,SSW,209,0.0,0.0,100,0.00,,SCT055,0.00,0.00,VWS V15.00,2016-02-12 06:28:00,
2016-02-12 01:29:00,6.7,6.7,30.22,SSW,209,0.0,0.0,100,0.00,,SCT055,0.00,0.00,VWS V15.00,2016-02-12 06:29:00,
2016-02-12 01:30:00,6.7,6.7,30.22,SSW,209,0.0,0.0,100,0.00,,SCT055,0.00,0.00,VWS V15.00,2016-02-12 06:30:00,
2016-02-12 01:31:00,6.7,6.7,30.22,SSW,209,0.0,0.0,100,0.00,,SCT055,0.00,0.00,VWS V15.00,2016-02-12 06:31:00,
2016-02-12 01:32:00,6.3,6.3,30.22,SSW,209,0.0,0.0,100,0.00,,SCT055,0.00,0.00,VWS V15.00,2016-02-12 06:32:00,
2016-02-12 01:34:00,6.9,6.9,30.22,SSW,209,0.0,0.0,100,0.00,,SCT055,0.00,0.00,VWS V15.00,2016-02-12 06:34:00,
2016-02-12 01:35:00,7.0,7.0,30.22,SSW,209,0.0,0.0,100,0.00,,SCT055,0.00,0.00,VWS V15.00,2016-02-12 06:35:00,
2016-02-12 01:36:00,7.0,7.0,30.22,SSW,209,0.0,0.0,100,0.00,,SCT055,0.00,0.00,VWS V15.00,2016-02-12 06:36:00,
2016-02-12 01:37:00,6.7,6.7,30.22,SSW,209,0.0,0.0,100,0.00,,SCT055,0.00,0.00,VWS V15.00,2016-02-12 06:37:00,
2016-02-12 01:38:00,7.4,7.4,30.22,SSW,209,0.0,0.0,100,0.00,,SCT055,0.00,0.00,VWS V15.00,2016-02-12 06:38:00,
2016-02-12 01:39:00,7.4,7.4,30.22,SSW,209,0.0,0.0,100,0.00,,SCT055,0.00,0.00,VWS V15.00,2016-02-12 06:39:00,
2016-02-12 01:40:00,7.6,7.6,30.22,SSW,209,0.0,0.0,100,0.00,,SCT055,0.00,0.00,VWS V15.00,2016-02-12 06:40:00,
2016-02-12 01:41:00,7.6,7.6,30.22,SSW,209,0.0,0.0,100,0.00,,SCT055,0.00,0.00,VWS V15.00,2016-02-12 06:41:00,
2016-02-12 01:42:00,6.9,6.9,30.22,SSW,209,0.0,0.0,100,0.00,,SCT055,0.00,0.00,VWS V15.00,2016-02-12 06:42:00,
2016-02-12 01:43:00,7.7,7.7,30.22,SSW,209,0.0,0.0,100,0.00,,SCT055,0.00,0.00,VWS V15.00,2016-02-12 06:43:00,
2016-02-12 01:45:00,7.9,7.9,30.21,SSW,209,0.0,0.0,100,0.00,,SCT055,0.00,0.00,VWS V15.00,2016-02-12 06:45:00,
2016-02-12 01:46:00,7.9,7.9,30.21,SSW,209,0.0,0.0,100,0.00,,SCT055,0.00,0.00,VWS V15.00,2016-02-12 06:46:00,
2016-02-12 01:47:00,7.2,7.2,30.22,SSW,209,0.0,0.0,100,0.00,,SCT055,0.00,0.00,VWS V15.00,2016-02-12 06:47:00,
2016-02-12 01:48:00,8.1,8.1,30.21,SSW,209,0.0,0.0,100,0.00,,SCT055,0.00,0.00,VWS V15.00,2016-02-12 06:48:00,
2016-02-12 01:50:00,8.3,8.3,30.21,SSW,209,0.0,0.0,100,0.00,,SCT055,0.00,0.00,VWS V15.00,2016-02-12 06:50:00,
2016-02-12 01:51:00,8.3,8.3,30.21,SSW,209,0.0,0.0,100,0.00,,FEW150,0.00,0.00,VWS V15.00,2016-02-12 06:51:00,
2016-02-12 01:52:00,7.7,7.7,30.22,SSW,209,0.0,0.0,100,0.00,,SCT055,0.00,0.00,VWS V15.00,2016-02-12 06:52:00,
2016-02-12 01:53:00,8.4,8.4,30.21,SSW,209,0.0,0.0,100,0.00,,FEW150,0.00,0.00,VWS V15.00,2016-02-12 06:53:00,
2016-02-12 01:54:00,8.4,8.4,30.21,SSW,209,0.0,0.0,100,0.00,,FEW150,0.00,0.00,VWS V15.00,2016-02-12 06:54:00,
2016-02-12 01:55:00,8.4,8.4,30.21,SSW,209,0.0,0.0,100,0.00,,FEW150,0.00,0.00,VWS V15.00,2016-02-12 06:55:00,
2016-02-12 01:57:00,8.1,8.1,30.21,SSW,209,0.0,0.0,100,0.00,,SCT055,0.00,0.00,VWS V15.00,2016-02-12 06:57:00,
2016-02-12 01:58:00,8.6,8.6,30.21,SSW,209,0.0,0.0,100,0.00,,FEW150,0.00,0.00,VWS V15.00,2016-02-12 06:58:00,
2016-02-12 01:59:00,8.6,8.6,30.21,SSW,209,0.0,0.0,100,0.00,,FEW150,0.00,0.00,VWS V15.00,2016-02-12 06:59:00,
2016-02-12 02:00:00,8.8,8.8,30.21,SSW,209,0.0,0.0,100,0.00,,FEW150,0.00,0.00,VWS V15.00,2016-02-12 07:00:00,
2016-02-12 02:01:00,8.8,8.8,30.21,SSW,209,0.0,0.0,100,0.00,,FEW150,0.00,0.00,VWS V15.00,2016-02-12 07:01:00,
2016-02-12 02:02:00,8.3,8.3,30.21,SSW,209,0.0,0.0,100,0.00,,FEW150,0.00,0.00,VWS V15.00,2016-02-12 07:02:00,
2016-02-12 02:03:00,9.0,9.0,30.21,SSW,209,0.0,0.0,100,0.00,,FEW150,0.00,0.00,VWS V15.00,2016-02-12 07:03:00,
2016-02-12 02:05:00,9.2,9.2,30.21,SSW,209,0.0,0.0,100,0.00,,FEW150,0.00,0.00,VWS V15.00,2016-02-12 07:05:00,
2016-02-12 02:06:00,9.2,9.2,30.21,SSW,209,0.0,0.0,100,0.00,,FEW150,0.00,0.00,VWS V15.00,2016-02-12 07:06:00,
2016-02-12 02:07:00,9.2,9.2,30.21,SSW,209,0.0,0.0,100,0.00,,FEW150,0.00,0.00,VWS V15.00,2016-02-12 07:07:00,
2016-02-12 02:08:00,9.3,9.3,30.21,SSW,209,0.0,0.0,100,0.00,,FEW150,0.00,0.00,VWS V15.00,2016-02-12 07:08:00,
2016-02-12 02:10:00,9.5,9.5,30.21,SSW,209,0.0,0.0,100,0.00,,FEW150,0.00,0.00,VWS V15.00,2016-02-12 07:10:00,
2016-02-12 02:11:00,9.5,9.5,30.21,SSW,209,0.0,0.0,100,0.00,,FEW150,0.00,0.00,VWS V15.00,2016-02-12 07:11:00,
2016-02-12 02:12:00,8.8,8.8,30.21,SSW,209,0.0,0.0,100,0.00,,FEW150,0.00,0.00,VWS V15.00,2016-02-12 07:12:00,
2016-02-12 02:13:00,9.7,9.7,30.21,SSW,209,0.0,0.0,100,0.00,,FEW150,0.00,0.00,VWS V15.00,2016-02-12 07:13:00,
2016-02-12 02:14:00,9.7,9.7,30.20,SSW,209,0.0,0.0,100,0.00,,FEW150,0.00,0.00,VWS V15.00,2016-02-12 07:14:00,
2016-02-12 02:17:00,9.2,9.2,30.21,SSW,209,0.0,0.0,100,0.00,,FEW150,0.00,0.00,VWS V15.00,2016-02-12 07:17:00,
2016-02-12 02:18:00,10.0,10.0,30.20,SSW,209,0.0,0.0,100,0.00,,FEW150,0.00,0.00,VWS V15.00,2016-02-12 07:18:00,
2016-02-12 02:19:00,10.0,10.0,30.20,SSW,209,0.0,0.0,100,0.00,,FEW150,0.00,0.00,VWS V15.00,2016-02-12 07:19:00,
2016-02-12 02:20:00,10.0,10.0,30.20,SSW,209,0.0,0.0,100,0.00,,FEW150,0.00,0.00,VWS V15.00,2016-02-12 07:20:00,
2016-02-12 02:22:00,9.7,9.7,30.21,SSW,209,0.0,0.0,100,0.00,,FEW150,0.00,0.00,VWS V15.00,2016-02-12 07:22:00,
2016-02-12 02:23:00,10.2,10.2,30.20,SSW,209,0.0,0.0,100,0.00,,FEW150,0.00,0.00,VWS V15.00,2016-02-12 07:23:00,
2016-02-12 02:24:00,10.4,10.4,30.20,SSW,209,0.0,0.0,100,0.00,,FEW150,0.00,0.00,VWS V15.00,2016-02-12 07:24:00,
2016-02-12 02:26:00,10.4,10.4,30.20,SSW,209,0.0,0.0,100,0.00,,FEW150,0.00,0.00,VWS V15.00,2016-02-12 07:26:00,
2016-02-12 02:27:00,9.9,9.9,30.20,SSW,209,0.0,0.0,100,0.00,,FEW150,0.00,0.00,VWS V15.00,2016-02-12 07:27:00,
2016-02-12 02:28:00,10.4,10.4,30.20,SSW,209,0.0,0.0,100,0.00,,FEW150,0.00,0.00,VWS V15.00,2016-02-12 07:28:00,
2016-02-12 02:29:00,10.5,10.5,30.20,SSW,209,0.0,0.0,100,0.00,,FEW150,0.00,0.00,VWS V15.00,2016-02-12 07:29:00,
2016-02-12 02:30:00,10.5,10.5,30.20,SSW,209,0.0,0.0,100,0.00,,FEW150,0.00,0.00,VWS V15.00,2016-02-12 07:30:00,
2016-02-12 02:31:00,10.5,10.5,30.20,SSW,209,0.0,0.0,100,0.00,,FEW150,0.00,0.00,VWS V15.00,2016-02-12 07:31:00,
2016-02-12 02:32:00,10.2,10.2,30.20,SSW,209,0.0,0.0,100,0.00,,FEW150,0.00,0.00,VWS V15.00,2016-02-12 07:32:00,
2016-02-12 02:33:00,10.7,10.7,30.20,SSW,209,0.0,0.0,100,0.00,,FEW150,0.00,0.00,VWS V15.00,2016-02-12 07:33:00,
2016-02-12 02:35:00,10.7,10.7,30.20,SSW,209,0.0,0.0,100,0.00,,FEW150,0.00,0.00,VWS V15.00,2016-02-12 07:35:00,
2016-02-12 02:36:00,10.9,10.9,30.20,SSW,209,0.0,0.0,100,0.00,,FEW150,0.00,0.00,VWS V15.00,2016-02-12 07:36:00,
2016-02-12 02:37:00,10.4,10.4,30.20,SSW,209,0.0,0.0,100,0.00,,FEW150,0.00,0.00,VWS V15.00,2016-02-12 07:37:00,
2016-02-12 02:38:00,11.1,11.1,30.20,SSW,209,0.0,1.0,100,0.00,,FEW150,0.00,0.00,VWS V15.00,2016-02-12 07:38:00,
2016-02-12 02:39:00,11.1,11.1,30.20,SSW,209,0.0,1.0,100,0.00,,FEW150,0.00,0.00,VWS V15.00,2016-02-12 07:39:00,
2016-02-12 02:40:00,11.1,11.1,30.20,SSW,209,0.0,0.0,100,0.00,,FEW150,0.00,0.00,VWS V15.00,2016-02-12 07:40:00,
2016-02-12 02:41:00,11.2,11.2,30.20,SSW,209,0.0,0.0,100,0.00,,FEW150,0.00,0.00,VWS V15.00,2016-02-12 07:41:00,
2016-02-12 02:42:00,10.5,10.5,30.20,SSW,209,0.0,0.0,100,0.00,,FEW150,0.00,0.00,VWS V15.00,2016-02-12 07:42:00,
2016-02-12 02:43:00,11.2,11.2,30.20,SSW,209,0.0,0.0,100,0.00,,FEW150,0.00,0.00,VWS V15.00,2016-02-12 07:43:00,
2016-02-12 02:44:00,11.2,11.2,30.19,SSW,209,0.0,0.0,100,0.00,,FEW150,0.00,0.00,VWS V15.00,2016-02-12 07:44:00,
2016-02-12 02:45:00,11.4,11.4,30.19,SSW,209,0.0,0.0,100,0.00,,FEW150,0.00,0.00,VWS V15.00,2016-02-12 07:45:00,
2016-02-12 02:46:00,11.4,11.4,30.19,SSW,209,0.0,0.0,100,0.00,,FEW150,0.00,0.00,VWS V15.00,2016-02-12 07:46:00,
2016-02-12 02:47:00,10.9,10.9,30.20,SSW,209,1.0,1.0,100,0.00,,FEW150,0.00,0.00,VWS V15.00,2016-02-12 07:47:00,
2016-02-12 02:49:00,11.6,11.6,30.19,SSW,209,0.0,0.0,100,0.00,,FEW150,0.00,0.00,VWS V15.00,2016-02-12 07:49:00,
2016-02-12 02:50:00,11.6,11.6,30.19,SSW,209,0.0,0.0,100,0.00,,FEW150,0.00,0.00,VWS V15.00,2016-02-12 07:50:00,
2016-02-12 02:51:00,11.6,11.6,30.19,SSW,209,0.0,0.0,100,0.00,,OVC046,0.00,0.00,VWS V15.00,2016-02-12 07:51:00,
2016-02-12 02:52:00,11.2,11.2,30.20,SSW,209,0.0,0.0,100,0.00,,FEW150,0.00,0.00,VWS V15.00,2016-02-12 07:52:00,
2016-02-12 02:53:00,11.7,11.7,30.19,SSW,209,0.0,0.0,100,0.00,,OVC046,0.00,0.00,VWS V15.00,2016-02-12 07:53:00,
2016-02-12 02:54:00,11.7,11.7,30.19,SSW,209,0.0,0.0,100,0.00,,OVC046,0.00,0.00,VWS V15.00,2016-02-12 07:54:00,
2016-02-12 02:55:00,11.7,11.7,30.19,SSW,209,0.0,0.0,100,0.00,,OVC046,0.00,0.00,VWS V15.00,2016-02-12 07:55:00,
2016-02-12 02:56:00,11.7,11.7,30.19,SSW,209,0.0,0.0,100,0.00,,OVC046,0.00,0.00,VWS V15.00,2016-02-12 07:56:00,
2016-02-12 02:57:00,11.4,11.4,30.19,SSW,209,0.0,0.0,100,0.00,,FEW150,0.00,0.00,VWS V15.00,2016-02-12 07:57:00,
2016-02-12 02:58:00,11.9,11.9,30.19,SSW,209,0.0,0.0,100,0.00,,OVC046,0.00,0.00,VWS V15.00,2016-02-12 07:58:00,
2016-02-12 02:59:00,11.9,11.9,30.18,SSW,209,0.0,0.0,100,0.00,,OVC046,0.00,0.00,VWS V15.00,2016-02-12 07:59:00,
2016-02-12 03:00:00,11.9,11.9,30.18,SSW,209,0.0,0.0,100,0.00,,OVC046,0.00,0.00,VWS V15.00,2016-02-12 08:00:00,
2016-02-12 03:01:00,11.9,11.9,30.18,SSW,209,0.0,0.0,100,0.00,,OVC046,0.00,0.00,VWS V15.00,2016-02-12 08:01:00,
2016-02-12 03:02:00,11.6,11.6,30.19,SSW,209,0.0,0.0,100,0.00,,OVC046,0.00,0.00,VWS V15.00,2016-02-12 08:02:00,
2016-02-12 03:03:00,12.1,12.1,30.18,SSW,209,0.0,0.0,100,0.00,,OVC046,0.00,0.00,VWS V15.00,2016-02-12 08:03:00,
2016-02-12 03:04:00,12.1,12.1,30.18,SSW,209,0.0,0.0,100,0.00,,OVC046,0.00,0.00,VWS V15.00,2016-02-12 08:04:00,
2016-02-12 03:05:00,12.1,12.1,30.18,SSW,209,0.0,0.0,100,0.00,,OVC046,0.00,0.00,VWS V15.00,2016-02-12 08:05:00,
2016-02-12 03:06:00,12.1,12.1,30.18,SSW,209,0.0,0.0,100,0.00,,OVC046,0.00,0.00,VWS V15.00,2016-02-12 08:06:00,
2016-02-12 03:07:00,11.9,11.9,30.19,SSW,209,0.0,0.0,100,0.00,,OVC046,0.00,0.00,VWS V15.00,2016-02-12 08:07:00,
2016-02-12 03:08:00,12.1,12.1,30.18,SSW,209,0.0,0.0,100,0.00,,OVC046,0.00,0.00,VWS V15.00,2016-02-12 08:08:00,
2016-02-12 03:09:00,12.1,12.1,30.18,SSW,209,0.0,0.0,100,0.00,,OVC046,0.00,0.00,VWS V15.00,2016-02-12 08:09:00,
2016-02-12 03:10:00,12.3,12.3,30.18,SSW,209,0.0,0.0,100,0.00,,OVC046,0.00,0.00,VWS V15.00,2016-02-12 08:10:00,
2016-02-12 03:11:00,12.3,12.3,30.18,SSW,209,0.0,0.0,100,0.00,,OVC046,0.00,0.00,VWS V15.00,2016-02-12 08:11:00,
2016-02-12 03:12:00,12.1,12.1,30.18,SSW,209,0.0,0.0,100,0.00,,OVC046,0.00,0.00,VWS V15.00,2016-02-12 08:12:00,
2016-02-12 03:13:00,12.3,12.3,30.18,SSW,209,0.0,0.0,100,0.00,,OVC046,0.00,0.00,VWS V15.00,2016-02-12 08:13:00,
2016-02-12 03:14:00,12.3,12.3,30.18,SSW,209,0.0,0.0,100,0.00,,OVC046,0.00,0.00,VWS V15.00,2016-02-12 08:14:00,
2016-02-12 03:16:00,12.3,12.3,30.18,SSW,209,0.0,0.0,100,0.00,,OVC046,0.00,0.00,VWS V15.00,2016-02-12 08:16:00,
2016-02-12 03:17:00,12.1,12.1,30.18,SSW,209,0.0,0.0,100,0.00,,OVC046,0.00,0.00,VWS V15.00,2016-02-12 08:17:00,
2016-02-12 03:18:00,12.3,12.3,30.18,SSW,209,0.0,0.0,100,0.00,,OVC046,0.00,0.00,VWS V15.00,2016-02-12 08:18:00,
2016-02-12 03:19:00,12.3,12.3,30.18,SSW,209,0.0,0.0,100,0.00,,OVC046,0.00,0.00,VWS V15.00,2016-02-12 08:19:00,
2016-02-12 03:20:00,12.4,12.4,30.18,SSW,209,0.0,0.0,100,0.00,,OVC046,0.00,0.00,VWS V15.00,2016-02-12 08:20:00,
2016-02-12 03:21:00,12.4,12.4,30.18,SSW,209,0.0,0.0,100,0.00,,OVC046,0.00,0.00,VWS V15.00,2016-02-12 08:21:00,
2016-02-12 03:22:00,12.3,12.3,30.18,SSW,209,0.0,0.0,100,0.00,,OVC046,0.00,0.00,VWS V15.00,2016-02-12 08:22:00,
2016-02-12 03:23:00,12.4,12.4,30.18,SSW,209,0.0,0.0,100,0.00,,OVC046,0.00,0.00,VWS V15.00,2016-02-12 08:23:00,
2016-02-12 03:24:00,12.4,12.4,30.18,SSW,209,0.0,0.0,100,0.00,,OVC046,0.00,0.00,VWS V15.00,2016-02-12 08:24:00,
2016-02-12 03:25:00,12.4,12.4,30.18,SSW,209,0.0,0.0,100,0.00,,OVC046,0.00,0.00,VWS V15.00,2016-02-12 08:25:00,
2016-02-12 03:26:00,12.4,12.4,30.18,SSW,209,0.0,0.0,100,0.00,,OVC046,0.00,0.00,VWS V15.00,2016-02-12 08:26:00,
2016-02-12 03:27:00,12.3,12.3,30.18,SSW,209,0.0,0.0,100,0.00,,OVC046,0.00,0.00,VWS V15.00,2016-02-12 08:27:00,
2016-02-12 03:28:00,12.4,12.4,30.18,SSW,209,0.0,0.0,100,0.00,,OVC046,0.00,0.00,VWS V15.00,2016-02-12 08:28:00,
2016-02-12 03:30:00,12.6,12.6,30.17,SSW,209,0.0,0.0,100,0.00,,OVC046,0.00,0.00,VWS V15.00,2016-02-12 08:30:00,
2016-02-12 03:31:00,12.6,12.6,30.17,SSW,209,0.0,0.0,100,0.00,,OVC046,0.00,0.00,VWS V15.00,2016-02-12 08:31:00,
2016-02-12 03:32:00,12.4,12.4,30.18,SSW,209,0.0,0.0,100,0.00,,OVC046,0.00,0.00,VWS V15.00,2016-02-12 08:32:00,
2016-02-12 03:33:00,12.6,12.6,30.17,SSW,209,0.0,0.0,100,0.00,,OVC046,0.00,0.00,VWS V15.00,2016-02-12 08:33:00,
2016-02-12 03:34:00,12.6,12.6,30.17,SSW,209,0.0,0.0,100,0.00,,OVC046,0.00,0.00,VWS V15.00,2016-02-12 08:34:00,
2016-02-12 03:35:00,12.6,12.6,30.17,SSW,209,0.0,0.0,100,0.00,,OVC046,0.00,0.00,VWS V15.00,2016-02-12 08:35:00,
2016-02-12 03:36:00,12.6,12.6,30.17,SSW,209,0.0,0.0,100,0.00,,OVC046,0.00,0.00,VWS V15.00,2016-02-12 08:36:00,
2016-02-12 03:37:00,12.4,12.4,30.18,SSW,209,0.0,0.0,100,0.00,,OVC046,0.00,0.00,VWS V15.00,2016-02-12 08:37:00,
2016-02-12 03:38:00,12.8,12.8,30.17,SSW,209,0.0,0.0,100,0.00,,OVC046,0.00,0.00,VWS V15.00,2016-02-12 08:38:00,
2016-02-12 03:39:00,12.8,12.8,30.17,SSW,209,0.0,0.0,100,0.00,,OVC046,0.00,0.00,VWS V15.00,2016-02-12 08:39:00,
2016-02-12 03:40:00,12.8,12.8,30.17,SSW,209,0.0,0.0,100,0.00,,OVC046,0.00,0.00,VWS V15.00,2016-02-12 08:40:00,
2016-02-12 03:41:00,12.8,12.8,30.17,SSW,209,0.0,0.0,100,0.00,,OVC046,0.00,0.00,VWS V15.00,2016-02-12 08:41:00,
2016-02-12 03:42:00,12.6,12.6,30.17,SSW,209,0.0,0.0,100,0.00,,OVC046,0.00,0.00,VWS V15.00,2016-02-12 08:42:00,
2016-02-12 03:43:00,12.8,12.8,30.17,SSW,209,0.0,0.0,100,0.00,,OVC046,0.00,0.00,VWS V15.00,2016-02-12 08:43:00,
2016-02-12 03:44:00,12.8,12.8,30.17,SSW,209,0.0,0.0,100,0.00,,OVC046,0.00,0.00,VWS V15.00,2016-02-12 08:44:00,
2016-02-12 03:45:00,12.8,12.8,30.17,SSW,209,0.0,0.0,100,0.00,,OVC046,0.00,0.00,VWS V15.00,2016-02-12 08:45:00,
2016-02-12 03:46:00,12.8,12.8,30.17,SSW,209,0.0,0.0,100,0.00,,OVC046,0.00,0.00,VWS V15.00,2016-02-12 08:46:00,
2016-02-12 03:47:00,12.6,12.6,30.17,SSW,209,0.0,0.0,100,0.00,,OVC046,0.00,0.00,VWS V15.00,2016-02-12 08:47:00,
2016-02-12 03:48:00,12.8,12.8,30.17,SSW,209,0.0,0.0,100,0.00,,OVC046,0.00,0.00,VWS V15.00,2016-02-12 08:48:00,
2016-02-12 03:49:00,12.8,12.8,30.17,SSW,209,0.0,0.0,100,0.00,,OVC046,0.00,0.00,VWS V15.00,2016-02-12 08:49:00,
2016-02-12 03:50:00,12.9,12.9,30.17,SSW,209,0.0,0.0,100,0.00,,OVC046,0.00,0.00,VWS V15.00,2016-02-12 08:50:00,
2016-02-12 03:51:00,12.9,12.9,30.17,SSW,209,0.0,0.0,100,0.00,,OVC045,0.00,0.00,VWS V15.00,2016-02-12 08:51:00,
2016-02-12 03:52:00,12.8,12.8,30.17,SSW,209,0.0,0.0,100,0.00,,OVC046,0.00,0.00,VWS V15.00,2016-02-12 08:52:00,
2016-02-12 03:53:00,12.9,12.9,30.17,SSW,209,0.0,0.0,100,0.00,,OVC045,0.00,0.00,VWS V15.00,2016-02-12 08:53:00,
2016-02-12 03:54:00,12.9,12.9,30.17,SSW,209,0.0,0.0,100,0.00,,OVC045,0.00,0.00,VWS V15.00,2016-02-12 08:54:00,
2016-02-12 03:55:00,12.9,12.9,30.17,SSW,209,0.0,0.0,100,0.00,,OVC045,0.00,0.00,VWS V15.00,2016-02-12 08:55:00,
2016-02-12 03:56:00,12.9,12.9,30.17,SSW,209,0.0,0.0,100,0.00,,OVC045,0.00,0.00,VWS V15.00,2016-02-12 08:56:00,
2016-02-12 03:57:00,12.8,12.8,30.17,SSW,209,0.0,0.0,100,0.00,,OVC046,0.00,0.00,VWS V15.00,2016-02-12 08:57:00,
2016-02-12 03:58:00,12.8,12.8,30.17,SSW,209,0.0,0.0,100,0.00,,OVC045,0.00,0.00,VWS V15.00,2016-02-12 08:58:00,
2016-02-12 04:00:00,12.8,12.8,30.16,SSW,209,0.0,0.0,100,0.00,,OVC045,0.00,0.00,VWS V15.00,2016-02-12 09:00:00,
2016-02-12 04:01:00,12.8,12.8,30.16,SSW,209,0.0,0.0,100,0.00,,OVC045,0.00,0.00,VWS V15.00,2016-02-12 09:01:00,
2016-02-12 04:02:00,12.9,12.9,30.17,SSW,209,0.0,0.0,100,0.00,,OVC045,0.00,0.00,VWS V15.00,2016-02-12 09:02:00,
2016-02-12 04:03:00,12.8,12.8,30.16,SSW,209,0.0,0.0,100,0.00,,OVC045,0.00,0.00,VWS V15.00,2016-02-12 09:03:00,
2016-02-12 04:04:00,12.8,12.8,30.16,SSW,209,0.0,0.0,100,0.00,,OVC045,0.00,0.00,VWS V15.00,2016-02-12 09:04:00,
2016-02-12 04:05:00,12.8,12.8,30.16,SSW,209,0.0,0.0,100,0.00,,OVC045,0.00,0.00,VWS V15.00,2016-02-12 09:05:00,
2016-02-12 04:06:00,12.8,12.8,30.16,SSW,209,0.0,0.0,100,0.00,,OVC045,0.00,0.00,VWS V15.00,2016-02-12 09:06:00,
2016-02-12 04:07:00,12.9,12.9,30.17,SSW,209,0.0,0.0,100,0.00,,OVC045,0.00,0.00,VWS V15.00,2016-02-12 09:07:00,
2016-02-12 04:08:00,12.8,12.8,30.16,SSW,209,1.0,1.0,100,0.00,,OVC045,0.00,0.00,VWS V15.00,2016-02-12 09:08:00,
2016-02-12 04:09:00,12.8,12.8,30.16,SSW,209,0.0,1.0,100,0.00,,OVC045,0.00,0.00,VWS V15.00,2016-02-12 09:09:00,
2016-02-12 04:11:00,12.8,12.8,30.16,SSW,209,0.0,0.0,100,0.00,,OVC045,0.00,0.00,VWS V15.00,2016-02-12 09:11:00,
2016-02-12 04:12:00,12.8,12.8,30.16,SSW,209,0.0,0.0,100,0.00,,OVC045,0.00,0.00,VWS V15.00,2016-02-12 09:12:00,
2016-02-12 04:13:00,12.8,12.8,30.16,SSW,209,0.0,0.0,100,0.00,,OVC045,0.00,0.00,VWS V15.00,2016-02-12 09:13:00,
2016-02-12 04:14:00,12.8,12.8,30.16,SSW,209,0.0,0.0,100,0.00,,OVC045,0.00,0.00,VWS V15.00,2016-02-12 09:14:00,
2016-02-12 04:15:00,12.8,12.8,30.16,SSW,209,0.0,0.0,100,0.00,,OVC045,0.00,0.00,VWS V15.00,2016-02-12 09:15:00,
2016-02-12 04:16:00,12.8,12.8,30.16,SSW,209,0.0,0.0,100,0.00,,OVC045,0.00,0.00,VWS V15.00,2016-02-12 09:16:00,
2016-02-12 04:17:00,12.8,12.8,30.16,SSW,209,0.0,0.0,100,0.00,,OVC045,0.00,0.00,VWS V15.00,2016-02-12 09:17:00,
2016-02-12 04:18:00,12.8,12.8,30.16,SSW,209,0.0,0.0,100,0.00,,OVC045,0.00,0.00,VWS V15.00,2016-02-12 09:18:00,
2016-02-12 04:19:00,12.8,12.8,30.16,SSW,209,0.0,0.0,100,0.00,,OVC045,0.00,0.00,VWS V15.00,2016-02-12 09:19:00,
2016-02-12 04:21:00,12.8,12.8,30.16,SSW,209,0.0,0.0,100,0.00,,OVC045,0.00,0.00,VWS V15.00,2016-02-12 09:21:00,
2016-02-12 04:22:00,12.8,12.8,30.16,SSW,209,0.0,0.0,100,0.00,,OVC045,0.00,0.00,VWS V15.00,2016-02-12 09:22:00,
2016-02-12 04:23:00,12.8,12.8,30.16,SSW,209,0.0,0.0,100,0.00,,OVC045,0.00,0.00,VWS V15.00,2016-02-12 09:23:00,
2016-02-12 04:24:00,12.8,12.8,30.16,SSW,209,0.0,0.0,100,0.00,,OVC045,0.00,0.00,VWS V15.00,2016-02-12 09:24:00,
2016-02-12 04:25:00,12.8,12.8,30.16,SSW,209,0.0,0.0,100,0.00,,OVC045,0.00,0.00,VWS V15.00,2016-02-12 09:25:00,
2016-02-12 04:27:00,12.8,12.8,30.16,SSW,209,0.0,0.0,100,0.00,,OVC045,0.00,0.00,VWS V15.00,2016-02-12 09:27:00,
2016-02-12 04:28:00,12.8,12.8,30.16,SSW,209,0.0,0.0,100,0.00,,OVC045,0.00,0.00,VWS V15.00,2016-02-12 09:28:00,
2016-02-12 04:29:00,12.8,12.8,30.15,SSW,209,0.0,0.0,100,0.00,,OVC045,0.00,0.00,VWS V15.00,2016-02-12 09:29:00,
2016-02-12 04:30:00,12.8,12.8,30.15,SSW,209,0.0,0.0,100,0.00,,OVC045,0.00,0.00,VWS V15.00,2016-02-12 09:30:00,
2016-02-12 04:31:00,12.8,12.8,30.15,SSW,209,0.0,0.0,100,0.00,,OVC045,0.00,0.00,VWS V15.00,2016-02-12 09:31:00,
2016-02-12 04:32:00,12.8,12.8,30.16,SSW,209,0.0,0.0,100,0.00,,OVC045,0.00,0.00,VWS V15.00,2016-02-12 09:32:00,
2016-02-12 04:33:00,12.8,12.8,30.15,SSW,209,0.0,0.0,100,0.00,,OVC045,0.00,0.00,VWS V15.00,2016-02-12 09:33:00,
2016-02-12 04:35:00,12.6,12.6,30.15,SSW,209,0.0,0.0,100,0.00,,OVC045,0.00,0.00,VWS V15.00,2016-02-12 09:35:00,
2016-02-12 04:36:00,12.6,12.6,30.15,SSW,209,0.0,0.0,100,0.00,,OVC045,0.00,0.00,VWS V15.00,2016-02-12 09:36:00,
2016-02-12 04:37:00,12.8,12.8,30.16,SSW,209,0.0,0.0,100,0.00,,OVC045,0.00,0.00,VWS V15.00,2016-02-12 09:37:00,
2016-02-12 04:38:00,12.6,12.6,30.15,SSW,209,0.0,0.0,100,0.00,,OVC045,0.00,0.00,VWS V15.00,2016-02-12 09:38:00,
2016-02-12 04:39:00,12.6,12.6,30.15,SSW,209,0.0,0.0,100,0.00,,OVC045,0.00,0.00,VWS V15.00,2016-02-12 09:39:00,
2016-02-12 04:40:00,12.4,12.4,30.15,SSW,209,0.0,0.0,100,0.00,,OVC045,0.00,0.00,VWS V15.00,2016-02-12 09:40:00,
2016-02-12 04:41:00,12.4,12.4,30.15,SSW,209,0.0,0.0,100,0.00,,OVC045,0.00,0.00,VWS V15.00,2016-02-12 09:41:00,
2016-02-12 04:42:00,12.8,12.8,30.15,SSW,209,0.0,0.0,100,0.00,,OVC045,0.00,0.00,VWS V15.00,2016-02-12 09:42:00,
2016-02-12 04:43:00,12.4,12.4,30.15,SSW,209,0.0,0.0,100,0.00,,OVC045,0.00,0.00,VWS V15.00,2016-02-12 09:43:00,
2016-02-12 04:44:00,12.3,12.3,30.15,SSW,209,0.0,0.0,100,0.00,,OVC045,0.00,0.00,VWS V15.00,2016-02-12 09:44:00,
2016-02-12 04:45:00,12.3,12.3,30.15,SSW,209,0.0,0.0,100,0.00,,OVC045,0.00,0.00,VWS V15.00,2016-02-12 09:45:00,
2016-02-12 04:46:00,12.3,12.3,30.15,SSW,209,0.0,0.0,100,0.00,,OVC045,0.00,0.00,VWS V15.00,2016-02-12 09:46:00,
2016-02-12 04:47:00,12.6,12.6,30.15,SSW,209,0.0,0.0,100,0.00,,OVC045,0.00,0.00,VWS V15.00,2016-02-12 09:47:00,
2016-02-12 04:48:00,12.1,12.1,30.15,SSW,209,0.0,0.0,100,0.00,,OVC045,0.00,0.00,VWS V15.00,2016-02-12 09:48:00,
2016-02-12 04:49:00,12.1,12.1,30.15,SSW,209,0.0,0.0,100,0.00,,OVC045,0.00,0.00,VWS V15.00,2016-02-12 09:49:00,
2016-02-12 04:50:00,11.9,11.9,30.15,SSW,209,0.0,0.0,100,0.00,,OVC045,0.00,0.00,VWS V15.00,2016-02-12 09:50:00,
2016-02-12 04:52:00,12.4,12.4,30.15,SSW,209,0.0,0.0,100,0.00,,OVC045,0.00,0.00,VWS V15.00,2016-02-12 09:52:00,
2016-02-12 04:53:00,11.9,11.9,30.15,SSW,209,0.0,0.0,100,0.00,,OVC150,0.00,0.00,VWS V15.00,2016-02-12 09:53:00,
2016-02-12 04:54:00,11.7,11.7,30.15,SSW,209,0.0,0.0,100,0.00,,OVC150,0.00,0.00,VWS V15.00,2016-02-12 09:54:00,
2016-02-12 04:55:00,11.7,11.7,30.15,SSW,209,0.0,0.0,100,0.00,,OVC150,0.00,0.00,VWS V15.00,2016-02-12 09:55:00,
2016-02-12 04:56:00,11.7,11.7,30.15,SSW,209,0.0,0.0,100,0.00,,OVC150,0.00,0.00,VWS V15.00,2016-02-12 09:56:00,
2016-02-12 04:57:00,12.1,12.1,30.15,SSW,209,0.0,0.0,100,0.00,,OVC045,0.00,0.00,VWS V15.00,2016-02-12 09:57:00,
2016-02-12 04:59:00,11.6,11.6,30.15,SSW,209,0.0,0.0,100,0.00,,OVC150,0.00,0.00,VWS V15.00,2016-02-12 09:59:00,
2016-02-12 05:00:00,11.4,11.4,30.15,SSW,209,0.0,0.0,100,0.00,,OVC150,0.00,0.00,VWS V15.00,2016-02-12 10:00:00,
2016-02-12 05:01:00,11.4,11.4,30.15,SSW,209,0.0,0.0,100,0.00,,OVC150,0.00,0.00,VWS V15.00,2016-02-12 10:01:00,
2016-02-12 05:02:00,11.9,11.9,30.15,SSW,209,0.0,0.0,100,0.00,,OVC150,0.00,0.00,VWS V15.00,2016-02-12 10:02:00,
2016-02-12 05:03:00,11.4,11.4,30.15,SSW,209,0.0,0.0,100,0.00,,OVC150,0.00,0.00,VWS V15.00,2016-02-12 10:03:00,
2016-02-12 05:04:00,11.2,11.2,30.15,SSW,209,0.0,0.0,100,0.00,,OVC150,0.00,0.00,VWS V15.00,2016-02-12 10:04:00,
2016-02-12 05:07:00,11.6,11.6,30.15,SSW,209,0.0,0.0,100,0.00,,OVC150,0.00,0.00,VWS V15.00,2016-02-12 10:07:00,
2016-02-12 05:09:00,11.1,11.1,30.15,SSW,209,0.0,0.0,100,0.00,,OVC150,0.00,0.00,VWS V15.00,2016-02-12 10:09:00,
2016-02-12 05:10:00,10.9,10.9,30.15,SSW,209,0.0,0.0,100,0.00,,OVC150,0.00,0.00,VWS V15.00,2016-02-12 10:10:00,
2016-02-12 05:11:00,10.9,10.9,30.15,SSW,209,0.0,0.0,100,0.00,,OVC150,0.00,0.00,VWS V15.00,2016-02-12 10:11:00,
2016-02-12 05:12:00,11.4,11.4,30.15,SSW,209,0.0,0.0,100,0.00,,OVC150,0.00,0.00,VWS V15.00,2016-02-12 10:12:00,
2016-02-12 05:13:00,10.9,10.9,30.15,SSW,209,0.0,0.0,100,0.00,,OVC150,0.00,0.00,VWS V15.00,2016-02-12 10:13:00,
2016-02-12 05:14:00,10.9,10.9,30.15,SSW,209,0.0,0.0,100,0.00,,OVC150,0.00,0.00,VWS V15.00,2016-02-12 10:14:00,
2016-02-12 05:16:00,10.9,10.9,30.15,SSW,209,0.0,0.0,100,0.00,,OVC150,0.00,0.00,VWS V15.00,2016-02-12 10:16:00,
2016-02-12 05:17:00,11.1,11.1,30.15,SSW,209,0.0,0.0,100,0.00,,OVC150,0.00,0.00,VWS V15.00,2016-02-12 10:17:00,
2016-02-12 05:18:00,10.9,10.9,30.15,SSW,209,0.0,0.0,100,0.00,,OVC150,0.00,0.00,VWS V15.00,2016-02-12 10:18:00,
2016-02-12 05:20:00,11.1,11.1,30.15,SSW,209,0.0,0.0,100,0.00,,OVC150,0.00,0.00,VWS V15.00,2016-02-12 10:20:00,
2016-02-12 05:21:00,11.1,11.1,30.15,SSW,209,0.0,0.0,100,0.00,,OVC150,0.00,0.00,VWS V15.00,2016-02-12 10:21:00,
2016-02-12 05:22:00,10.9,10.9,30.15,SSW,209,0.0,0.0,100,0.00,,OVC150,0.00,0.00,VWS V15.00,2016-02-12 10:22:00,
2016-02-12 05:23:00,11.1,11.1,30.15,SSW,209,0.0,0.0,100,0.00,,OVC150,0.00,0.00,VWS V15.00,2016-02-12 10:23:00,
2016-02-12 05:24:00,11.1,11.1,30.15,SSW,209,0.0,0.0,100,0.00,,OVC150,0.00,0.00,VWS V15.00,2016-02-12 10:24:00,
2016-02-12 05:25:00,11.1,11.1,30.15,SSW,209,0.0,0.0,100,0.00,,OVC150,0.00,0.00,VWS V15.00,2016-02-12 10:25:00,
2016-02-12 05:26:00,11.1,11.1,30.15,SSW,209,0.0,0.0,100,0.00,,OVC150,0.00,0.00,VWS V15.00,2016-02-12 10:26:00,
2016-02-12 05:27:00,10.9,10.9,30.15,SSW,209,0.0,0.0,100,0.00,,OVC150,0.00,0.00,VWS V15.00,2016-02-12 10:27:00,
2016-02-12 05:28:00,11.1,11.1,30.15,SSW,209,0.0,0.0,100,0.00,,OVC150,0.00,0.00,VWS V15.00,2016-02-12 10:28:00,
2016-02-12 05:30:00,11.2,11.2,30.15,SSW,209,0.0,0.0,100,0.00,,OVC150,0.00,0.00,VWS V15.00,2016-02-12 10:30:00,
2016-02-12 05:31:00,11.2,11.2,30.15,SSW,209,0.0,0.0,100,0.00,,OVC150,0.00,0.00,VWS V15.00,2016-02-12 10:31:00,
2016-02-12 05:32:00,11.1,11.1,30.15,SSW,209,0.0,0.0,100,0.00,,OVC150,0.00,0.00,VWS V15.00,2016-02-12 10:32:00,
2016-02-12 05:33:00,11.4,11.4,30.15,SSW,209,0.0,0.0,100,0.00,,OVC150,0.00,0.00,VWS V15.00,2016-02-12 10:33:00,
2016-02-12 05:34:00,11.4,11.4,30.15,SSW,209,0.0,0.0,100,0.00,,OVC150,0.00,0.00,VWS V15.00,2016-02-12 10:34:00,
2016-02-12 05:35:00,11.4,11.4,30.15,SSW,209,0.0,0.0,100,0.00,,OVC150,0.00,0.00,VWS V15.00,2016-02-12 10:35:00,
2016-02-12 05:36:00,11.4,11.4,30.15,SSW,209,0.0,0.0,100,0.00,,OVC150,0.00,0.00,VWS V15.00,2016-02-12 10:36:00,
2016-02-12 05:37:00,11.1,11.1,30.15,SSW,209,0.0,0.0,100,0.00,,OVC150,0.00,0.00,VWS V15.00,2016-02-12 10:37:00,
2016-02-12 05:38:00,11.4,11.4,30.15,SSW,209,0.0,0.0,100,0.00,,OVC150,0.00,0.00,VWS V15.00,2016-02-12 10:38:00,
2016-02-12 05:40:00,11.6,11.6,30.15,SSW,209,0.0,0.0,100,0.00,,OVC150,0.00,0.00,VWS V15.00,2016-02-12 10:40:00,
2016-02-12 05:41:00,11.6,11.6,30.15,SSW,209,0.0,0.0,100,0.00,,OVC150,0.00,0.00,VWS V15.00,2016-02-12 10:41:00,
2016-02-12 05:42:00,11.2,11.2,30.15,SSW,209,0.0,0.0,100,0.00,,OVC150,0.00,0.00,VWS V15.00,2016-02-12 10:42:00,
2016-02-12 05:43:00,11.7,11.7,30.15,SSW,209,0.0,1.0,100,0.00,,OVC150,0.00,0.00,VWS V15.00,2016-02-12 10:43:00,
2016-02-12 05:44:00,11.7,11.7,30.15,SSW,209,0.0,1.0,100,0.00,,OVC150,0.00,0.00,VWS V15.00,2016-02-12 10:44:00,
2016-02-12 05:45:00,11.7,11.7,30.15,SSW,209,0.0,1.0,100,0.00,,OVC150,0.00,0.00,VWS V15.00,2016-02-12 10:45:00,
2016-02-12 05:46:00,11.7,11.7,30.15,SSW,209,0.0,1.0,100,0.00,,OVC150,0.00,0.00,VWS V15.00,2016-02-12 10:46:00,
2016-02-12 05:47:00,11.4,11.4,30.15,SSW,209,0.0,0.0,100,0.00,,OVC150,0.00,0.00,VWS V15.00,2016-02-12 10:47:00,
2016-02-12 05:48:00,11.7,11.7,30.15,SSW,209,0.0,1.0,100,0.00,,OVC150,0.00,0.00,VWS V15.00,2016-02-12 10:48:00,
2016-02-12 05:50:00,11.9,11.9,30.15,SSW,209,0.0,0.0,100,0.00,,OVC150,0.00,0.00,VWS V15.00,2016-02-12 10:50:00,
2016-02-12 05:51:00,11.9,11.9,30.15,SSW,209,0.0,0.0,100,0.00,,BKN150,0.00,0.00,VWS V15.00,2016-02-12 10:51:00,
2016-02-12 05:52:00,11.6,11.6,30.15,SSW,209,0.0,1.0,100,0.00,,OVC150,0.00,0.00,VWS V15.00,2016-02-12 10:52:00,
2016-02-12 05:53:00,11.9,11.9,30.15,SSW,209,0.0,0.0,100,0.00,,BKN150,0.00,0.00,VWS V15.00,2016-02-12 10:53:00,
2016-02-12 05:54:00,12.1,12.1,30.15,SSW,209,0.0,0.0,100,0.00,,BKN150,0.00,0.00,VWS V15.00,2016-02-12 10:54:00,
2016-02-12 05:55:00,12.1,12.1,30.15,SSW,209,0.0,0.0,100,0.00,,BKN150,0.00,0.00,VWS V15.00,2016-02-12 10:55:00,
2016-02-12 05:56:00,12.1,12.1,30.15,SSW,209,0.0,0.0,100,0.00,,BKN150,0.00,0.00,VWS V15.00,2016-02-12 10:56:00,
2016-02-12 05:57:00,11.7,11.7,30.15,SSW,209,0.0,1.0,100,0.00,,OVC150,0.00,0.00,VWS V15.00,2016-02-12 10:57:00,
2016-02-12 05:58:00,12.3,12.3,30.15,SSW,209,0.0,0.0,100,0.00,,BKN150,0.00,0.00,VWS V15.00,2016-02-12 10:58:00,
2016-02-12 05:59:00,12.3,12.3,30.14,SSW,209,0.0,0.0,100,0.00,,BKN150,0.00,0.00,VWS V15.00,2016-02-12 10:59:00,
2016-02-12 06:01:00,12.3,12.3,30.14,SSW,209,0.0,2.0,100,0.00,,BKN150,0.00,0.00,VWS V15.00,2016-02-12 11:01:00,
2016-02-12 06:02:00,11.9,11.9,30.15,SSW,209,0.0,0.0,100,0.00,,BKN150,0.00,0.00,VWS V15.00,2016-02-12 11:02:00,
2016-02-12 06:03:00,12.4,12.4,30.14,SSW,209,0.0,2.0,100,0.00,,BKN150,0.00,0.00,VWS V15.00,2016-02-12 11:03:00,
2016-02-12 06:04:00,12.4,12.4,30.14,SSW,209,0.0,2.0,100,0.00,,BKN150,0.00,0.00,VWS V15.00,2016-02-12 11:04:00,
2016-02-12 06:05:00,12.6,12.6,30.14,SSW,209,0.0,2.0,100,0.00,,BKN150,0.00,0.00,VWS V15.00,2016-02-12 11:05:00,
2016-02-12 06:06:00,12.6,12.6,30.14,SSW,209,0.0,2.0,100,0.00,,BKN150,0.00,0.00,VWS V15.00,2016-02-12 11:06:00,
2016-02-12 06:07:00,12.3,12.3,30.15,SSW,209,0.0,0.0,100,0.00,,BKN150,0.00,0.00,VWS V15.00,2016-02-12 11:07:00,
2016-02-12 06:08:00,12.6,12.6,30.14,SSW,209,0.0,2.0,100,0.00,,BKN150,0.00,0.00,VWS V15.00,2016-02-12 11:08:00,
2016-02-12 06:09:00,12.6,12.6,30.14,SSW,209,0.0,2.0,100,0.00,,BKN150,0.00,0.00,VWS V15.00,2016-02-12 11:09:00,
2016-02-12 06:10:00,12.6,12.6,30.14,SSW,209,0.0,0.0,100,0.00,,BKN150,0.00,0.00,VWS V15.00,2016-02-12 11:10:00,
2016-02-12 06:11:00,12.6,12.6,30.14,SSW,209,0.0,0.0,100,0.00,,BKN150,0.00,0.00,VWS V15.00,2016-02-12 11:11:00,
2016-02-12 06:12:00,12.4,12.4,30.14,SSW,209,0.0,2.0,100,0.00,,BKN150,0.00,0.00,VWS V15.00,2016-02-12 11:12:00,
2016-02-12 06:13:00,12.8,12.8,30.14,SSW,209,0.0,0.0,100,0.00,,BKN150,0.00,0.00,VWS V15.00,2016-02-12 11:13:00,
2016-02-12 06:14:00,12.8,12.8,30.14,SSW,209,0.0,0.0,100,0.00,,BKN150,0.00,0.00,VWS V15.00,2016-02-12 11:14:00,
2016-02-12 06:15:00,12.8,12.8,30.14,SSW,209,0.0,0.0,100,0.00,,BKN150,0.00,0.00,VWS V15.00,2016-02-12 11:15:00,
2016-02-12 06:16:00,12.8,12.8,30.14,SSW,209,0.0,0.0,100,0.00,,BKN150,0.00,0.00,VWS V15.00,2016-02-12 11:16:00,
2016-02-12 06:17:00,12.6,12.6,30.14,SSW,209,0.0,2.0,100,0.00,,BKN150,0.00,0.00,VWS V15.00,2016-02-12 11:17:00,
2016-02-12 06:18:00,12.9,12.9,30.14,SSW,209,0.0,0.0,100,0.00,,BKN150,0.00,0.00,VWS V15.00,2016-02-12 11:18:00,
2016-02-12 06:19:00,12.9,12.9,30.14,SSW,209,0.0,0.0,100,0.00,,BKN150,0.00,0.00,VWS V15.00,2016-02-12 11:19:00,
2016-02-12 06:21:00,13.1,13.1,30.14,SSW,209,0.0,0.0,100,0.00,,BKN150,0.00,0.00,VWS V15.00,2016-02-12 11:21:00,
2016-02-12 06:22:00,12.8,12.8,30.14,SSW,209,0.0,0.0,100,0.00,,BKN150,0.00,0.00,VWS V15.00,2016-02-12 11:22:00,
2016-02-12 06:23:00,13.1,13.1,30.14,SSW,209,0.0,0.0,100,0.00,,BKN150,0.00,0.00,VWS V15.00,2016-02-12 11:23:00,
2016-02-12 06:24:00,13.3,13.3,30.14,SSW,209,1.0,2.0,100,0.00,,BKN150,0.00,0.00,VWS V15.00,2016-02-12 11:24:00,
2016-02-12 06:25:00,13.3,13.3,30.14,SSW,209,0.0,2.0,100,0.00,,BKN150,0.00,0.00,VWS V15.00,2016-02-12 11:25:00,
2016-02-12 06:26:00,13.3,13.3,30.14,SSW,209,0.0,2.0,100,0.00,,BKN150,0.00,0.00,VWS V15.00,2016-02-12 11:26:00,
2016-02-12 06:27:00,12.9,12.9,30.14,SSW,209,0.0,0.0,100,0.00,,BKN150,0.00,0.00,VWS V15.00,2016-02-12 11:27:00,
2016-02-12 06:28:00,13.5,13.5,30.14,SSW,209,0.0,2.0,100,0.00,,BKN150,0.00,0.00,VWS V15.00,2016-02-12 11:28:00,
2016-02-12 06:29:00,13.5,13.5,30.13,SSW,209,0.0,2.0,100,0.00,,BKN150,0.00,0.00,VWS V15.00,2016-02-12 11:29:00,
2016-02-12 06:31:00,13.5,13.5,30.13,SSW,209,0.0,0.0,100,0.00,,BKN150,0.00,0.00,VWS V15.00,2016-02-12 11:31:00,
2016-02-12 06:32:00,13.1,13.1,30.14,SSW,209,0.0,0.0,100,0.00,,BKN150,0.00,0.00,VWS V15.00,2016-02-12 11:32:00,
2016-02-12 06:33:00,13.5,13.5,30.13,SSW,209,0.0,0.0,100,0.00,,BKN150,0.00,0.00,VWS V15.00,2016-02-12 11:33:00,
2016-02-12 06:34:00,13.6,13.6,30.13,SSW,209,0.0,0.0,100,0.00,,BKN150,0.00,0.00,VWS V15.00,2016-02-12 11:34:00,
2016-02-12 06:35:00,13.6,13.6,30.13,SSW,209,0.0,0.0,100,0.00,,BKN150,0.00,0.00,VWS V15.00,2016-02-12 11:35:00,
2016-02-12 06:36:00,13.6,13.6,30.13,SSW,209,0.0,0.0,100,0.00,,BKN150,0.00,0.00,VWS V15.00,2016-02-12 11:36:00,
2016-02-12 06:37:00,13.3,13.3,30.14,SSW,209,0.0,2.0,100,0.00,,BKN150,0.00,0.00,VWS V15.00,2016-02-12 11:37:00,
2016-02-12 06:38:00,13.6,13.6,30.13,SSW,209,0.0,0.0,100,0.00,,BKN150,0.00,0.00,VWS V15.00,2016-02-12 11:38:00,
2016-02-12 06:39:00,13.6,13.6,30.13,SSW,209,0.0,0.0,100,0.00,,BKN150,0.00,0.00,VWS V15.00,2016-02-12 11:39:00,
2016-02-12 06:40:00,13.6,13.6,30.13,SSW,209,0.0,0.0,100,0.00,,BKN150,0.00,0.00,VWS V15.00,2016-02-12 11:40:00,
2016-02-12 06:41:00,13.6,13.6,30.13,SSW,209,0.0,0.0,100,0.00,,BKN150,0.00,0.00,VWS V15.00,2016-02-12 11:41:00,
2016-02-12 06:42:00,13.5,13.5,30.13,SSW,209,0.0,0.0,100,0.00,,BKN150,0.00,0.00,VWS V15.00,2016-02-12 11:42:00,
2016-02-12 06:43:00,13.6,13.6,30.13,SSW,209,0.0,0.0,100,0.00,,BKN150,0.00,0.00,VWS V15.00,2016-02-12 11:43:00,
2016-02-12 06:44:00,13.6,13.6,30.13,SSW,209,0.0,0.0,100,0.00,,BKN150,0.00,0.00,VWS V15.00,2016-02-12 11:44:00,
2016-02-12 06:45:00,13.6,13.6,30.13,SSW,209,0.0,0.0,100,0.00,,BKN150,0.00,0.00,VWS V15.00,2016-02-12 11:45:00,
2016-02-12 06:46:00,13.6,13.6,30.13,SSW,209,0.0,0.0,100,0.00,,BKN150,0.00,0.00,VWS V15.00,2016-02-12 11:46:00,
2016-02-12 06:47:00,13.6,13.6,30.13,SSW,209,0.0,0.0,100,0.00,,BKN150,0.00,0.00,VWS V15.00,2016-02-12 11:47:00,
2016-02-12 06:48:00,13.6,13.6,30.13,SSW,209,0.0,0.0,100,0.00,,BKN150,0.00,0.00,VWS V15.00,2016-02-12 11:48:00,
2016-02-12 06:49:00,13.6,13.6,30.13,SSW,209,0.0,0.0,100,0.00,,BKN150,0.00,0.00,VWS V15.00,2016-02-12 11:49:00,
2016-02-12 06:50:00,13.5,13.5,30.13,SSW,209,0.0,0.0,100,0.00,,BKN150,0.00,0.00,VWS V15.00,2016-02-12 11:50:00,
2016-02-12 06:52:00,13.6,13.6,30.13,SSW,209,0.0,0.0,100,0.00,,BKN150,0.00,0.00,VWS V15.00,2016-02-12 11:52:00,
2016-02-12 06:53:00,13.5,13.5,30.13,SSW,209,0.0,0.0,100,0.00,,BKN120,0.00,0.00,VWS V15.00,2016-02-12 11:53:00,
2016-02-12 06:55:00,13.5,13.5,30.13,SSW,209,0.0,0.0,100,0.00,,BKN120,0.00,0.00,VWS V15.00,2016-02-12 11:55:00,
2016-02-12 06:56:00,13.5,13.5,30.13,SSW,209,0.0,1.0,100,0.00,,BKN120,0.00,0.00,VWS V15.00,2016-02-12 11:56:00,
2016-02-12 06:57:00,13.6,13.6,30.13,SSW,209,0.0,0.0,100,0.00,,BKN150,0.00,0.00,VWS V15.00,2016-02-12 11:57:00,
2016-02-12 06:58:00,13.5,13.5,30.13,SSW,209,0.0,1.0,100,0.00,,BKN120,0.00,0.00,VWS V15.00,2016-02-12 11:58:00,
2016-02-12 06:59:00,13.5,13.5,30.13,SSW,209,0.0,1.0,100,0.00,,BKN120,0.00,0.00,VWS V15.00,2016-02-12 11:59:00,
2016-02-12 07:01:00,13.5,13.5,30.13,SSW,209,0.0,0.0,100,0.00,,BKN120,0.00,0.00,VWS V15.00,2016-02-12 12:01:00,
2016-02-12 07:02:00,13.5,13.5,30.13,SSW,209,0.0,0.0,100,0.00,,BKN120,0.00,0.00,VWS V15.00,2016-02-12 12:02:00,
2016-02-12 07:03:00,13.5,13.5,30.13,SSW,209,0.0,0.0,100,0.00,,BKN120,0.00,0.00,VWS V15.00,2016-02-12 12:03:00,
2016-02-12 07:04:00,13.5,13.5,30.13,SSW,209,0.0,0.0,100,0.00,,BKN120,0.00,0.00,VWS V15.00,2016-02-12 12:04:00,
2016-02-12 07:05:00,13.5,13.5,30.13,SSW,209,0.0,0.0,100,0.00,,BKN120,0.00,0.00,VWS V15.00,2016-02-12 12:05:00,
2016-02-12 07:06:00,13.5,13.5,30.13,SSW,209,0.0,0.0,100,0.00,,BKN120,0.00,0.00,VWS V15.00,2016-02-12 12:06:00,
2016-02-12 07:07:00,13.5,13.5,30.13,SSW,209,0.0,1.0,100,0.00,,BKN120,0.00,0.00,VWS V15.00,2016-02-12 12:07:00,
2016-02-12 07:08:00,13.5,13.5,30.13,SSW,209,0.0,0.0,100,0.00,,BKN120,0.00,0.00,VWS V15.00,2016-02-12 12:08:00,
2016-02-12 07:09:00,13.5,13.5,30.13,SSW,209,0.0,0.0,100,0.00,,BKN120,0.00,0.00,VWS V15.00,2016-02-12 12:09:00,
2016-02-12 07:10:00,13.5,13.5,30.13,SSW,209,0.0,0.0,100,0.00,,BKN120,0.00,0.00,VWS V15.00,2016-02-12 12:10:00,
2016-02-12 07:11:00,13.5,13.5,30.13,SSW,209,0.0,0.0,100,0.00,,BKN120,0.00,0.00,VWS V15.00,2016-02-12 12:11:00,
2016-02-12 07:12:00,13.5,13.5,30.13,SSW,209,0.0,0.0,100,0.00,,BKN120,0.00,0.00,VWS V15.00,2016-02-12 12:12:00,
2016-02-12 07:13:00,13.5,13.5,30.13,SSW,209,0.0,0.0,100,0.00,,BKN120,0.00,0.00,VWS V15.00,2016-02-12 12:13:00,
2016-02-12 07:15:00,13.3,13.3,30.13,SSW,209,0.0,0.0,100,0.00,,BKN120,0.00,0.00,VWS V15.00,2016-02-12 12:15:00,
2016-02-12 07:16:00,13.3,13.3,30.13,SSW,209,0.0,2.0,100,0.00,,BKN120,0.00,0.00,VWS V15.00,2016-02-12 12:16:00,
2016-02-12 07:17:00,13.5,13.5,30.13,SSW,209,0.0,0.0,100,0.00,,BKN120,0.00,0.00,VWS V15.00,2016-02-12 12:17:00,
2016-02-12 07:19:00,13.3,13.3,30.13,SSW,209,0.0,2.0,100,0.00,,BKN120,0.00,0.00,VWS V15.00,2016-02-12 12:19:00,
2016-02-12 07:20:00,13.3,13.3,30.13,SSW,209,0.0,0.0,100,0.00,,BKN120,0.00,0.00,VWS V15.00,2016-02-12 12:20:00,
2016-02-12 07:21:00,13.3,13.3,30.13,SSW,209,0.0,0.0,100,0.00,,BKN120,0.00,0.00,VWS V15.00,2016-02-12 12:21:00,
2016-02-12 07:22:00,13.5,13.5,30.13,SSW,209,0.0,0.0,100,0.00,,BKN120,0.00,0.00,VWS V15.00,2016-02-12 12:22:00,
2016-02-12 07:23:00,13.3,13.3,30.13,SSW,209,0.0,0.0,100,0.00,,BKN120,0.00,0.00,VWS V15.00,2016-02-12 12:23:00,
2016-02-12 07:25:00,13.3,13.3,30.13,SSW,209,0.0,0.0,100,0.00,,BKN120,0.00,7.00,VWS V15.00,2016-02-12 12:25:00,
2016-02-12 07:26:00,13.3,13.3,30.13,SSW,209,0.0,0.0,100,0.00,,BKN120,0.00,7.00,VWS V15.00,2016-02-12 12:26:00,
2016-02-12 07:27:00,13.3,13.3,30.13,SSW,209,0.0,2.0,100,0.00,,BKN120,0.00,0.00,VWS V15.00,2016-02-12 12:27:00,
2016-02-12 07:28:00,13.3,13.3,30.13,SSW,209,0.0,0.0,100,0.00,,BKN120,0.00,11.00,VWS V15.00,2016-02-12 12:28:00,
2016-02-12 07:29:00,13.3,13.3,30.13,SSW,209,0.0,0.0,100,0.00,,BKN120,0.00,11.00,VWS V15.00,2016-02-12 12:29:00,
2016-02-12 07:30:00,13.3,13.3,30.13,SSW,209,0.0,0.0,100,0.00,,BKN120,0.00,11.00,VWS V15.00,2016-02-12 12:30:00,
2016-02-12 07:32:00,13.3,13.3,30.13,SSW,209,0.0,0.0,100,0.00,,BKN120,0.00,0.00,VWS V15.00,2016-02-12 12:32:00,
2016-02-12 07:33:00,13.3,13.3,30.13,SSW,209,0.0,0.0,100,0.00,,BKN120,0.00,11.00,VWS V15.00,2016-02-12 12:33:00,
2016-02-12 07:35:00,13.1,13.1,30.13,SSW,209,0.0,0.0,100,0.00,,BKN120,0.00,11.00,VWS V15.00,2016-02-12 12:35:00,
2016-02-12 07:36:00,13.1,13.1,30.13,SSW,209,0.0,0.0,100,0.00,,BKN120,0.00,11.00,VWS V15.00,2016-02-12 12:36:00,
2016-02-12 07:37:00,13.3,13.3,30.13,SSW,209,0.0,0.0,100,0.00,,BKN120,0.00,7.00,VWS V15.00,2016-02-12 12:37:00,
2016-02-12 07:38:00,13.1,13.1,30.13,SSW,209,0.0,0.0,100,0.00,,BKN120,0.00,11.00,VWS V15.00,2016-02-12 12:38:00,
2016-02-12 07:39:00,13.1,13.1,30.13,SSW,209,0.0,0.0,100,0.00,,BKN120,0.00,11.00,VWS V15.00,2016-02-12 12:39:00,
2016-02-12 07:40:00,13.1,13.1,30.13,SSW,209,0.0,0.0,100,0.00,,BKN120,0.00,11.00,VWS V15.00,2016-02-12 12:40:00,
2016-02-12 07:41:00,13.1,13.1,30.13,SSW,209,0.0,0.0,100,0.00,,BKN120,0.00,12.00,VWS V15.00,2016-02-12 12:41:00,
2016-02-12 07:42:00,13.3,13.3,30.13,SSW,209,0.0,0.0,100,0.00,,BKN120,0.00,11.00,VWS V15.00,2016-02-12 12:42:00,
2016-02-12 07:43:00,13.1,13.1,30.13,SSW,209,0.0,0.0,100,0.00,,BKN120,0.00,12.00,VWS V15.00,2016-02-12 12:43:00,
2016-02-12 07:46:00,13.1,13.1,30.13,SSW,209,0.0,0.0,100,0.00,,BKN120,0.00,16.00,VWS V15.00,2016-02-12 12:46:00,
2016-02-12 07:47:00,13.1,13.1,30.13,SSW,209,0.0,0.0,100,0.00,,BKN120,0.00,11.00,VWS V15.00,2016-02-12 12:47:00,
2016-02-12 07:49:00,13.1,13.1,30.13,SSW,209,0.0,0.0,100,0.00,,BKN120,0.00,19.00,VWS V15.00,2016-02-12 12:49:00,
2016-02-12 07:50:00,13.1,13.1,30.13,SSW,209,0.0,0.0,100,0.00,,BKN120,0.00,19.00,VWS V15.00,2016-02-12 12:50:00,
2016-02-12 07:51:00,13.1,13.1,30.13,SSW,209,0.0,0.0,100,0.00,,OVC120,0.00,19.00,VWS V15.00,2016-02-12 12:51:00,
2016-02-12 07:52:00,13.1,13.1,30.13,SSW,209,0.0,0.0,100,0.00,,BKN120,0.00,12.00,VWS V15.00,2016-02-12 12:52:00,
2016-02-12 07:53:00,13.1,13.1,30.13,SSW,209,0.0,0.0,100,0.00,,OVC120,0.00,26.00,VWS V15.00,2016-02-12 12:53:00,
2016-02-12 07:54:00,13.1,13.1,30.13,SSW,209,0.0,0.0,100,0.00,,OVC120,0.00,26.00,VWS V15.00,2016-02-12 12:54:00,
2016-02-12 07:55:00,13.1,13.1,30.13,SSW,209,0.0,0.0,100,0.00,,OVC120,0.00,26.00,VWS V15.00,2016-02-12 12:55:00,
2016-02-12 07:56:00,13.1,13.1,30.13,SSW,209,0.0,0.0,100,0.00,,OVC120,0.00,26.00,VWS V15.00,2016-02-12 12:56:00,
2016-02-12 07:57:00,13.1,13.1,30.13,SSW,209,0.0,0.0,100,0.00,,BKN120,0.00,16.00,VWS V15.00,2016-02-12 12:57:00,
2016-02-12 07:58:00,13.3,13.3,30.13,SSW,209,0.0,0.0,100,0.00,,OVC120,0.00,40.00,VWS V15.00,2016-02-12 12:58:00,
2016-02-12 07:59:00,13.3,13.3,30.12,SSW,209,0.0,0.0,100,0.00,,OVC120,0.00,40.00,VWS V15.00,2016-02-12 12:59:00,
2016-02-12 08:00:00,13.3,13.3,30.12,SSW,209,0.0,0.0,100,0.00,,OVC120,0.00,40.00,VWS V15.00,2016-02-12 13:00:00,
2016-02-12 08:01:00,13.3,13.3,30.12,SSW,209,0.0,0.0,100,0.00,,OVC120,0.00,40.00,VWS V15.00,2016-02-12 13:01:00,
2016-02-12 08:02:00,13.1,13.1,30.13,SSW,209,0.0,0.0,100,0.00,,OVC120,0.00,19.00,VWS V15.00,2016-02-12 13:02:00,
2016-02-12 08:03:00,13.5,13.5,30.12,SSW,209,0.0,0.0,100,0.00,,OVC120,0.00,53.00,VWS V15.00,2016-02-12 13:03:00,
2016-02-12 08:05:00,13.5,13.5,30.12,SSW,209,1.0,1.0,100,0.00,,OVC120,0.00,53.00,VWS V15.00,2016-02-12 13:05:00,
2016-02-12 08:06:00,13.6,13.6,30.12,SSW,209,0.0,1.0,100,0.00,,OVC120,0.00,51.00,VWS V15.00,2016-02-12 13:06:00,
2016-02-12 08:07:00,13.3,13.3,30.13,SSW,209,0.0,0.0,100,0.00,,OVC120,0.00,40.00,VWS V15.00,2016-02-12 13:07:00,
2016-02-12 08:09:00,13.8,13.8,30.12,SSW,209,0.0,1.0,100,0.00,,OVC120,0.00,51.00,VWS V15.00,2016-02-12 13:09:00,
2016-02-12 08:10:00,13.8,13.8,30.12,SSW,209,0.0,0.0,100,0.00,,OVC120,0.00,42.00,VWS V15.00,2016-02-12 13:10:00,
2016-02-12 08:11:00,13.8,13.8,30.12,SSW,209,0.0,0.0,100,0.00,,OVC120,0.00,42.00,VWS V15.00,2016-02-12 13:11:00,
2016-02-12 08:12:00,13.5,13.5,30.12,SSW,209,0.0,0.0,100,0.00,,OVC120,0.00,53.00,VWS V15.00,2016-02-12 13:12:00,
2016-02-12 08:13:00,14.0,14.0,30.12,SSW,209,0.0,0.0,100,0.00,,OVC120,0.00,42.00,VWS V15.00,2016-02-12 13:13:00,
2016-02-12 08:14:00,14.0,14.0,30.11,SSW,209,0.0,0.0,100,0.00,,OVC120,0.00,42.00,VWS V15.00,2016-02-12 13:14:00,
2016-02-12 08:16:00,14.1,14.1,30.11,SSW,209,0.0,2.0,100,0.00,,OVC120,0.00,42.00,VWS V15.00,2016-02-12 13:16:00,
2016-02-12 08:17:00,14.1,14.1,30.11,SSW,209,0.0,2.0,100,0.00,,OVC120,0.00,42.00,VWS V15.00,2016-02-12 13:17:00,
2016-02-12 08:19:00,14.3,14.3,30.11,SSW,209,0.0,2.0,100,0.00,,OVC120,0.00,60.00,VWS V15.00,2016-02-12 13:19:00,
2016-02-12 08:20:00,14.3,14.3,30.11,SSW,209,0.0,0.0,100,0.00,,OVC120,0.00,60.00,VWS V15.00,2016-02-12 13:20:00,
2016-02-12 08:21:00,14.4,14.4,30.11,SSW,209,0.0,0.0,100,0.00,,OVC120,0.00,60.00,VWS V15.00,2016-02-12 13:21:00,
2016-02-12 08:22:00,14.0,14.0,30.12,SSW,209,0.0,0.0,100,0.00,,OVC120,0.00,42.00,VWS V15.00,2016-02-12 13:22:00,
2016-02-12 08:23:00,14.4,14.4,30.11,SSW,209,0.0,2.0,100,0.00,,OVC120,0.00,56.00,VWS V15.00,2016-02-12 13:23:00,
2016-02-12 08:24:00,14.6,14.6,30.11,SSW,209,0.0,2.0,100,0.00,,OVC120,0.00,55.00,VWS V15.00,2016-02-12 13:24:00,
2016-02-12 08:25:00,14.6,14.6,30.11,SSW,209,0.0,2.0,100,0.00,,OVC120,0.00,53.00,VWS V15.00,2016-02-12 13:25:00,
2016-02-12 08:26:00,14.6,14.6,30.11,SSW,209,0.0,2.0,100,0.00,,OVC120,0.00,53.00,VWS V15.00,2016-02-12 13:26:00,
2016-02-12 08:27:00,14.1,14.1,30.11,SSW,209,2.0,2.0,100,0.00,,OVC120,0.00,42.00,VWS V15.00,2016-02-12 13:27:00,
2016-02-12 08:28:00,14.8,14.8,30.11,SSW,209,0.0,2.0,100,0.00,,OVC120,0.00,51.00,VWS V15.00,2016-02-12 13:28:00,
2016-02-12 08:29:00,14.8,14.8,30.11,SSW,209,0.0,2.0,100,0.00,,OVC120,0.00,53.00,VWS V15.00,2016-02-12 13:29:00,
2016-02-12 08:30:00,14.8,14.8,30.11,SSW,209,0.0,0.0,100,0.00,,OVC120,0.00,55.00,VWS V15.00,2016-02-12 13:30:00,
2016-02-12 08:31:00,14.9,14.9,30.11,SSW,209,0.0,0.0,100,0.00,,OVC120,0.00,53.00,VWS V15.00,2016-02-12 13:31:00,
2016-02-12 08:32:00,14.4,14.4,30.11,SSW,209,0.0,2.0,100,0.00,,OVC120,0.00,60.00,VWS V15.00,2016-02-12 13:32:00,
2016-02-12 08:33:00,14.9,14.9,30.11,SSW,209,0.0,1.0,100,0.00,,OVC120,0.00,56.00,VWS V15.00,2016-02-12 13:33:00,
2016-02-12 08:34:00,15.1,15.1,30.11,SSW,209,1.0,1.0,100,0.00,,OVC120,0.00,62.00,VWS V15.00,2016-02-12 13:34:00,
2016-02-12 08:35:00,15.1,15.1,30.11,SSW,209,0.0,1.0,100,0.00,,OVC120,0.00,70.00,VWS V15.00,2016-02-12 13:35:00,
2016-02-12 08:36:00,15.1,15.1,30.11,SSW,209,0.0,1.0,100,0.00,,OVC120,0.00,76.00,VWS V15.00,2016-02-12 13:36:00,
2016-02-12 08:37:00,14.6,14.6,30.11,SSW,209,0.0,2.0,100,0.00,,OVC120,0.00,51.00,VWS V15.00,2016-02-12 13:37:00,
2016-02-12 08:38:00,15.2,15.2,30.11,SSW,209,0.0,1.0,100,0.00,,OVC120,0.00,93.00,VWS V15.00,2016-02-12 13:38:00,
2016-02-12 08:39:00,15.2,15.2,30.11,SSW,209,0.0,3.0,100,0.00,,OVC120,0.00,99.00,VWS V15.00,2016-02-12 13:39:00,
2016-02-12 08:40:00,15.4,15.4,30.11,SSW,209,3.0,3.0,100,0.00,,OVC120,0.00,97.00,VWS V15.00,2016-02-12 13:40:00,
2016-02-12 08:41:00,15.4,15.4,30.11,SSW,209,0.0,3.0,100,0.00,,OVC120,0.00,93.00,VWS V15.00,2016-02-12 13:41:00,
2016-02-12 08:43:00,15.6,15.6,30.11,SSW,209,0.0,3.0,100,0.00,,OVC120,0.00,72.00,VWS V15.00,2016-02-12 13:43:00,
2016-02-12 08:44:00,15.6,15.6,30.10,SSW,209,0.0,3.0,100,0.00,,OVC120,0.00,69.00,VWS V15.00,2016-02-12 13:44:00,
2016-02-12 08:46:00,15.7,15.7,30.10,SSW,209,0.0,3.0,100,0.00,,OVC120,0.00,72.00,VWS V15.00,2016-02-12 13:46:00,
2016-02-12 08:47:00,15.2,15.2,30.11,SSW,209,0.0,1.0,100,0.00,,OVC120,0.00,88.00,VWS V15.00,2016-02-12 13:47:00,
2016-02-12 08:48:00,15.7,15.7,30.10,SSW,209,0.0,3.0,100,0.00,,OVC120,0.00,81.00,VWS V15.00,2016-02-12 13:48:00,
2016-02-12 08:49:00,15.9,15.9,30.10,SSW,209,0.0,3.0,100,0.00,,OVC120,0.00,83.00,VWS V15.00,2016-02-12 13:49:00,
2016-02-12 08:50:00,15.9,15.9,30.10,SSW,209,0.0,0.0,100,0.00,,OVC120,0.00,84.00,VWS V15.00,2016-02-12 13:50:00,
2016-02-12 08:51:00,15.9,15.9,30.10,SSW,209,1.0,3.0,100,0.00,,BKN250,0.00,84.00,VWS V15.00,2016-02-12 13:51:00,
2016-02-12 08:52:00,15.9,15.9,30.10,SSW,209,0.0,3.0,100,0.00,,BKN250,0.00,81.00,VWS V15.00,2016-02-12 13:52:00,
2016-02-12 08:53:00,16.1,16.1,30.10,SSW,209,0.0,3.0,100,0.00,,BKN250,0.00,81.00,VWS V15.00,2016-02-12 13:53:00,
2016-02-12 08:54:00,16.1,16.1,30.10,SSW,209,1.0,5.0,100,0.00,,BKN250,0.00,83.00,VWS V15.00,2016-02-12 13:54:00,
2016-02-12 08:55:00,16.1,16.1,30.10,SSW,209,1.0,5.0,100,0.00,,BKN250,0.00,86.00,VWS V15.00,2016-02-12 13:55:00,
2016-02-12 08:56:00,16.1,16.1,30.10,SSW,209,2.0,5.0,100,0.00,,BKN250,0.00,88.00,VWS V15.00,2016-02-12 13:56:00,
2016-02-12 08:57:00,15.7,15.7,30.10,SSW,209,0.0,3.0,100,0.00,,OVC120,0.00,79.00,VWS V15.00,2016-02-12 13:57:00,
2016-02-12 08:58:00,16.2,16.2,30.10,SSW,209,0.0,5.0,100,0.00,,BKN250,0.00,91.00,VWS V15.00,2016-02-12 13:58:00,
2016-02-12 08:59:00,16.2,16.2,30.09,SSW,209,2.0,5.0,100,0.00,,BKN250,0.00,95.00,VWS V15.00,2016-02-12 13:59:00,
2016-02-12 09:00:00,16.4,16.4,30.09,SSW,209,0.0,1.0,100,0.00,,BKN250,0.00,95.00,VWS V15.00,2016-02-12 14:00:00,
2016-02-12 09:01:00,16.4,16.4,30.09,SSW,209,0.0,1.0,100,0.00,,BKN250,0.00,95.00,VWS V15.00,2016-02-12 14:01:00,
2016-02-12 09:02:00,15.9,15.9,30.10,SSW,209,0.0,3.0,100,0.00,,BKN250,0.00,81.00,VWS V15.00,2016-02-12 14:02:00,
2016-02-12 09:03:00,16.5,16.5,30.09,SSW,209,0.0,2.0,100,0.00,,BKN250,0.00,99.00,VWS V15.00,2016-02-12 14:03:00,
2016-02-12 09:04:00,16.5,16.5,30.09,SSW,209,0.0,2.0,100,0.00,,BKN250,0.00,102.00,VWS V15.00,2016-02-12 14:04:00,
2016-02-12 09:05:00,16.5,16.5,30.09,SSW,209,0.0,2.0,100,0.00,,BKN250,0.00,104.00,VWS V15.00,2016-02-12 14:05:00,
2016-02-12 09:06:00,16.5,16.5,30.09,SSW,209,1.0,3.0,100,0.00,,BKN250,0.00,106.00,VWS V15.00,2016-02-12 14:06:00,
2016-02-12 09:07:00,16.7,16.7,30.09,SSW,209,1.0,3.0,100,0.00,,BKN250,0.00,113.00,VWS V15.00,2016-02-12 14:07:00,
2016-02-12 09:08:00,16.7,16.7,30.09,SSW,209,2.0,3.0,100,0.00,,BKN250,0.00,116.00,VWS V15.00,2016-02-12 14:08:00,
2016-02-12 09:09:00,16.7,16.7,30.09,SSW,209,1.0,3.0,100,0.00,,BKN250,0.00,120.00,VWS V15.00,2016-02-12 14:09:00,
2016-02-12 09:10:00,16.7,16.7,30.09,SSW,209,0.0,3.0,100,0.00,,BKN250,0.00,125.00,VWS V15.00,2016-02-12 14:10:00,
2016-02-12 09:11:00,16.9,16.9,30.09,SSW,209,0.0,3.0,100,0.00,,BKN250,0.00,130.00,VWS V15.00,2016-02-12 14:11:00,
2016-02-12 09:12:00,16.4,16.4,30.09,SSW,209,1.0,2.0,100,0.00,,BKN250,0.00,97.00,VWS V15.00,2016-02-12 14:12:00,
2016-02-12 09:13:00,16.9,16.9,30.09,SSW,209,2.0,3.0,100,0.00,,BKN250,0.00,144.00,VWS V15.00,2016-02-12 14:13:00,
2016-02-12 09:14:00,17.0,17.0,30.09,SSW,209,0.0,3.0,100,0.00,,BKN250,0.00,150.00,VWS V15.00,2016-02-12 14:14:00,
2016-02-12 09:15:00,17.0,17.0,30.09,SSW,209,0.0,3.0,100,0.00,,BKN250,0.00,151.00,VWS V15.00,2016-02-12 14:15:00,
2016-02-12 09:16:00,17.2,17.2,30.09,SSW,209,0.0,3.0,100,0.00,,BKN250,0.00,151.00,VWS V15.00,2016-02-12 14:16:00,
2016-02-12 09:17:00,16.7,16.7,30.09,SSW,209,1.0,3.0,100,0.00,,BKN250,0.00,113.00,VWS V15.00,2016-02-12 14:17:00,
2016-02-12 09:18:00,17.2,17.2,30.09,SSW,209,2.0,3.0,100,0.00,,BKN250,0.00,171.00,VWS V15.00,2016-02-12 14:18:00,
2016-02-12 09:19:00,17.3,17.3,30.09,SSW,209,0.0,3.0,100,0.00,,BKN250,0.00,171.00,VWS V15.00,2016-02-12 14:19:00,
2016-02-12 09:20:00,17.3,17.3,30.09,SSW,209,2.0,2.0,100,0.00,,BKN250,0.00,169.00,VWS V15.00,2016-02-12 14:20:00,
2016-02-12 09:21:00,17.5,17.5,30.09,SSW,209,2.0,3.0,100,0.00,,BKN250,0.00,169.00,VWS V15.00,2016-02-12 14:21:00,
2016-02-12 09:22:00,16.9,16.9,30.09,SSW,209,2.0,3.0,100,0.00,,BKN250,0.00,139.00,VWS V15.00,2016-02-12 14:22:00,
2016-02-12 09:23:00,17.5,17.5,30.09,SSW,209,2.0,3.0,100,0.00,,BKN250,0.00,171.00,VWS V15.00,2016-02-12 14:23:00,
2016-02-12 09:24:00,17.7,17.7,30.09,SSW,209,1.0,3.0,100,0.00,,BKN250,0.00,165.00,VWS V15.00,2016-02-12 14:24:00,
2016-02-12 09:25:00,17.7,17.7,30.09,SSW,209,0.0,3.0,100,0.00,,BKN250,0.00,158.00,VWS V15.00,2016-02-12 14:25:00,
2016-02-12 09:26:00,17.8,17.8,30.09,SSW,209,0.0,3.0,100,0.00,,BKN250,0.00,151.00,VWS V15.00,2016-02-12 14:26:00,
2016-02-12 09:27:00,17.8,17.8,30.09,SSW,209,4.0,5.0,100,0.00,,BKN250,0.00,137.00,VWS V15.00,2016-02-12 14:27:00,
2016-02-12 09:28:00,17.8,17.8,30.09,SSW,209,1.0,5.0,100,0.00,,BKN250,0.00,132.00,VWS V15.00,2016-02-12 14:28:00,
2016-02-12 09:29:00,18.0,18.0,30.08,SSW,209,0.0,5.0,100,0.00,,BKN250,0.00,128.00,VWS V15.00,2016-02-12 14:29:00,
2016-02-12 09:30:00,18.0,18.0,30.08,SSW,209,0.0,7.0,100,0.00,,BKN250,0.00,125.00,VWS V15.00,2016-02-12 14:30:00,
2016-02-12 09:31:00,18.0,18.0,30.08,SSW,209,0.0,7.0,100,0.00,,BKN250,0.00,123.00,VWS V15.00,2016-02-12 14:31:00,
2016-02-12 09:32:00,17.5,17.5,30.09,SSW,209,3.0,3.0,100,0.00,,BKN250,0.00,172.00,VWS V15.00,2016-02-12 14:32:00,
2016-02-12 09:33:00,18.1,18.1,30.08,SSW,209,0.0,7.0,100,0.00,,BKN250,0.00,116.00,VWS V15.00,2016-02-12 14:33:00,
2016-02-12 09:34:00,18.1,18.1,30.08,SSW,209,0.0,7.0,100,0.00,,BKN250,0.00,118.00,VWS V15.00,2016-02-12 14:34:00,
2016-02-12 09:35:00,18.3,18.3,30.08,SSW,209,1.0,7.0,100,0.00,,BKN250,0.00,120.00,VWS V15.00,2016-02-12 14:35:00,
2016-02-12 09:36:00,18.3,18.3,30.08,SSW,209,2.0,7.0,100,0.00,,BKN250,0.00,121.00,VWS V15.00,2016-02-12 14:36:00,
2016-02-12 09:37:00,17.8,17.8,30.09,SSW,209,3.0,5.0,100,0.00,,BKN250,0.00,137.00,VWS V15.00,2016-02-12 14:37:00,
2016-02-12 09:38:00,18.3,18.3,30.08,SSW,209,0.0,7.0,100,0.00,,BKN250,0.00,132.00,VWS V15.00,2016-02-12 14:38:00,
2016-02-12 09:39:00,18.3,18.3,30.08,SSW,209,2.0,7.0,100,0.00,,BKN250,0.00,137.00,VWS V15.00,2016-02-12 14:39:00,
2016-02-12 09:40:00,18.3,18.3,30.08,SSW,209,3.0,3.0,100,0.00,,BKN250,0.00,141.00,VWS V15.00,2016-02-12 14:40:00,
2016-02-12 09:41:00,18.3,18.3,30.08,SSW,209,3.0,7.0,100,0.00,,BKN250,0.00,146.00,VWS V15.00,2016-02-12 14:41:00,
2016-02-12 09:42:00,18.1,18.1,30.08,SSW,209,0.0,7.0,100,0.00,,BKN250,0.00,118.00,VWS V15.00,2016-02-12 14:42:00,
2016-02-12 09:43:00,18.3,18.3,30.08,SSW,209,4.0,7.0,100,0.00,,BKN250,0.00,150.00,VWS V15.00,2016-02-12 14:43:00,
2016-02-12 09:44:00,18.3,18.3,30.08,SSW,209,2.0,7.0,100,0.00,,BKN250,0.00,148.00,VWS V15.00,2016-02-12 14:44:00,
2016-02-12 09:45:00,18.3,18.3,30.08,SSW,209,2.0,7.0,100,0.00,,BKN250,0.00,146.00,VWS V15.00,2016-02-12 14:45:00,
2016-02-12 09:46:00,18.3,18.3,30.08,SSW,209,3.0,7.0,100,0.00,,BKN250,0.00,144.00,VWS V15.00,2016-02-12 14:46:00,
2016-02-12 09:47:00,18.3,18.3,30.08,SSW,209,1.0,7.0,100,0.00,,BKN250,0.00,128.00,VWS V15.00,2016-02-12 14:47:00,
2016-02-12 09:48:00,18.4,18.4,30.08,SSW,209,5.0,7.0,100,0.00,,BKN250,0.00,148.00,VWS V15.00,2016-02-12 14:48:00,
2016-02-12 09:50:00,18.4,18.4,30.08,SSW,209,1.0,4.0,100,0.00,,BKN250,0.00,148.00,VWS V15.00,2016-02-12 14:50:00,
2016-02-12 09:51:00,18.4,18.4,30.08,SSW,209,3.0,4.0,100,0.00,,OVC120,0.00,146.00,VWS V15.00,2016-02-12 14:51:00,
2016-02-12 09:52:00,18.3,18.3,30.08,SSW,209,1.0,7.0,100,0.00,,BKN250,0.00,151.00,VWS V15.00,2016-02-12 14:52:00,
2016-02-12 09:53:00,18.4,18.4,30.08,SSW,209,0.0,4.0,100,0.00,,OVC120,0.00,134.00,VWS V15.00,2016-02-12 14:53:00,
2016-02-12 09:54:00,18.4,18.4,30.08,SSW,209,2.0,4.0,100,0.00,,OVC120,0.00,132.00,VWS V15.00,2016-02-12 14:54:00,
2016-02-12 09:55:00,18.4,18.4,30.08,SSW,209,0.0,7.0,100,0.00,,OVC120,0.00,135.00,VWS V15.00,2016-02-12 14:55:00,
2016-02-12 09:56:00,18.6,18.6,30.08,SSW,209,0.0,7.0,100,0.00,,OVC120,0.00,139.00,VWS V15.00,2016-02-12 14:56:00,
2016-02-12 09:57:00,18.3,18.3,30.08,SSW,209,1.0,7.0,100,0.00,,BKN250,0.00,146.00,VWS V15.00,2016-02-12 14:57:00,
2016-02-12 09:58:00,18.6,18.6,30.08,SSW,209,0.0,7.0,100,0.00,,OVC120,0.00,148.00,VWS V15.00,2016-02-12 14:58:00,
2016-02-12 09:59:00,18.8,18.8,30.08,SSW,209,0.0,7.0,100,0.00,,OVC120,0.00,148.00,VWS V15.00,2016-02-12 14:59:00,
2016-02-12 10:00:00,18.8,18.8,30.08,SSW,209,0.0,4.0,100,0.00,,OVC120,0.00,151.00,VWS V15.00,2016-02-12 15:00:00,
2016-02-12 10:01:00,18.8,18.8,30.08,SSW,209,1.0,4.0,100,0.00,,OVC120,0.00,165.00,VWS V15.00,2016-02-12 15:01:00,
2016-02-12 10:02:00,18.4,18.4,30.08,SSW,209,2.0,4.0,100,0.00,,OVC120,0.00,139.00,VWS V15.00,2016-02-12 15:02:00,
2016-02-12 10:03:00,19.1,19.1,30.08,SSW,209,2.0,5.0,100,0.00,,OVC120,0.00,190.00,VWS V15.00,2016-02-12 15:03:00,
2016-02-12 10:05:00,19.2,19.2,30.08,SSW,209,1.0,5.0,100,0.00,,OVC120,0.00,201.00,VWS V15.00,2016-02-12 15:05:00,
2016-02-12 10:06:00,19.2,19.2,30.08,SSW,209,6.0,7.0,100,0.00,,OVC120,0.00,202.00,VWS V15.00,2016-02-12 15:06:00,
2016-02-12 10:07:00,18.6,18.6,30.08,SSW,209,1.0,7.0,100,0.00,,OVC120,0.00,146.00,VWS V15.00,2016-02-12 15:07:00,
2016-02-12 10:08:00,19.4,19.4,30.08,SSW,209,4.0,7.0,100,0.00,,OVC120,0.00,206.00,VWS V15.00,2016-02-12 15:08:00,
2016-02-12 10:09:00,19.4,19.4,30.08,SSW,209,0.0,7.0,100,0.00,,OVC120,0.00,208.00,VWS V15.00,2016-02-12 15:09:00,
2016-02-12 10:10:00,19.5,19.5,30.08,SSW,209,7.0,7.0,100,0.00,,OVC120,0.00,208.00,VWS V15.00,2016-02-12 15:10:00,
2016-02-12 10:11:00,19.5,19.5,30.08,SSW,209,2.0,7.0,100,0.00,,OVC120,0.00,204.00,VWS V15.00,2016-02-12 15:11:00,
2016-02-12 10:12:00,18.9,18.9,30.08,SSW,209,1.0,5.0,100,0.00,,OVC120,0.00,181.00,VWS V15.00,2016-02-12 15:12:00,
2016-02-12 10:13:00,19.7,19.7,30.08,SSW,209,2.0,7.0,100,0.00,,OVC120,0.00,185.00,VWS V15.00,2016-02-12 15:13:00,
2016-02-12 10:14:00,19.7,19.7,30.08,SSW,209,1.0,7.0,100,0.00,,OVC120,0.00,179.00,VWS V15.00,2016-02-12 15:14:00,
2016-02-12 10:16:00,19.7,19.7,30.08,SSW,209,3.0,7.0,100,0.00,,OVC120,0.00,171.00,VWS V15.00,2016-02-12 15:16:00,
2016-02-12 10:17:00,19.2,19.2,30.08,SSW,209,4.0,7.0,100,0.00,,OVC120,0.00,206.00,VWS V15.00,2016-02-12 15:17:00,
2016-02-12 10:18:00,19.9,19.9,30.08,SSW,209,1.0,7.0,100,0.00,,OVC120,0.00,169.00,VWS V15.00,2016-02-12 15:18:00,
2016-02-12 10:19:00,19.9,19.9,30.08,SSW,209,2.0,7.0,100,0.00,,OVC120,0.00,171.00,VWS V15.00,2016-02-12 15:19:00,
2016-02-12 10:20:00,19.9,19.9,30.08,SSW,209,0.0,3.0,100,0.00,,OVC120,0.00,172.00,VWS V15.00,2016-02-12 15:20:00,
2016-02-12 10:21:00,20.0,20.0,30.08,SSW,209,1.0,3.0,100,0.00,,OVC120,0.00,172.00,VWS V15.00,2016-02-12 15:21:00,
2016-02-12 10:22:00,19.5,19.5,30.08,SSW,209,0.0,7.0,100,0.00,,OVC120,0.00,190.00,VWS V15.00,2016-02-12 15:22:00,
2016-02-12 10:25:00,20.0,20.0,30.08,SSW,209,1.0,7.0,100,0.00,,OVC120,0.00,195.00,VWS V15.00,2016-02-12 15:25:00,
2016-02-12 10:26:00,20.2,20.2,30.08,SSW,209,1.0,7.0,100,0.00,,OVC120,0.00,201.00,VWS V15.00,2016-02-12 15:26:00,
2016-02-12 10:27:00,19.9,19.9,30.08,SSW,209,2.0,7.0,100,0.00,,OVC120,0.00,169.00,VWS V15.00,2016-02-12 15:27:00,
2016-02-12 10:28:00,20.2,20.2,30.08,SSW,209,0.0,7.0,100,0.00,,OVC120,0.00,197.00,VWS V15.00,2016-02-12 15:28:00,
2016-02-12 10:29:00,20.3,20.3,30.07,SSW,209,2.0,7.0,100,0.00,,OVC120,0.00,188.00,VWS V15.00,2016-02-12 15:29:00,
2016-02-12 10:30:00,20.3,20.3,30.07,SSW,209,5.0,5.0,100,0.00,,OVC120,0.00,178.00,VWS V15.00,2016-02-12 15:30:00,
2016-02-12 10:31:00,20.3,20.3,30.07,SSW,209,1.0,5.0,100,0.00,,OVC120,0.00,167.00,VWS V15.00,2016-02-12 15:31:00,
2016-02-12 10:32:00,20.0,20.0,30.08,SSW,209,0.0,4.0,100,0.00,,OVC120,0.00,176.00,VWS V15.00,2016-02-12 15:32:00,
2016-02-12 10:33:00,20.3,20.3,30.07,SSW,209,0.0,7.0,100,0.00,,OVC120,0.00,151.00,VWS V15.00,2016-02-12 15:33:00,
2016-02-12 10:34:00,20.3,20.3,30.07,SSW,209,4.0,7.0,100,0.00,,OVC120,0.00,150.00,VWS V15.00,2016-02-12 15:34:00,
2016-02-12 10:35:00,20.3,20.3,30.07,SSW,209,2.0,7.0,100,0.00,,OVC120,0.00,151.00,VWS V15.00,2016-02-12 15:35:00,
2016-02-12 10:36:00,20.3,20.3,30.07,SSW,209,2.0,7.0,100,0.00,,OVC120,0.00,157.00,VWS V15.00,2016-02-12 15:36:00,
2016-02-12 10:37:00,20.2,20.2,30.08,SSW,209,2.0,7.0,100,0.00,,OVC120,0.00,201.00,VWS V15.00,2016-02-12 15:37:00,
2016-02-12 10:38:00,20.3,20.3,30.07,SSW,209,7.0,7.0,100,0.00,,OVC120,0.00,179.00,VWS V15.00,2016-02-12 15:38:00,
2016-02-12 10:39:00,20.3,20.3,30.07,SSW,209,1.0,7.0,100,0.00,,OVC120,0.00,183.00,VWS V15.00,2016-02-12 15:39:00,
2016-02-12 10:40:00,20.3,20.3,30.07,SSW,209,3.0,5.0,100,0.00,,OVC120,0.00,185.00,VWS V15.00,2016-02-12 15:40:00,
2016-02-12 10:41:00,20.3,20.3,30.07,SSW,209,3.0,5.0,100,0.00,,OVC120,0.00,188.00,VWS V15.00,2016-02-12 15:41:00,
2016-02-12 10:42:00,20.3,20.3,30.07,SSW,209,5.0,7.0,100,0.00,,OVC120,0.00,155.00,VWS V15.00,2016-02-12 15:42:00,
2016-02-12 10:43:00,20.3,20.3,30.07,SSW,209,0.0,6.0,100,0.00,,OVC120,0.00,206.00,VWS V15.00,2016-02-12 15:43:00,
2016-02-12 10:44:00,20.3,20.3,30.06,SSW,209,3.0,6.0,100,0.00,,OVC120,0.00,215.00,VWS V15.00,2016-02-12 15:44:00,
2016-02-12 10:45:00,20.5,20.5,30.06,SSW,209,3.0,6.0,100,0.00,,OVC120,0.00,223.00,VWS V15.00,2016-02-12 15:45:00,
2016-02-12 10:46:00,20.5,20.5,30.06,SSW,209,2.0,6.0,100,0.00,,OVC120,0.00,232.00,VWS V15.00,2016-02-12 15:46:00,
2016-02-12 10:47:00,20.3,20.3,30.07,SSW,209,2.0,7.0,100,0.00,,OVC120,0.00,174.00,VWS V15.00,2016-02-12 15:47:00,
2016-02-12 10:48:00,20.5,20.5,30.06,SSW,209,4.0,6.0,100,0.00,,OVC120,0.00,248.00,VWS V15.00,2016-02-12 15:48:00,
2016-02-12 10:50:00,20.6,20.6,30.06,SSW,209,0.0,2.0,100,0.00,,OVC120,0.00,250.00,VWS V15.00,2016-02-12 15:50:00,
2016-02-12 10:51:00,20.6,20.6,30.06,SSW,209,1.0,2.0,100,0.00,,OVC080,0.00,250.00,VWS V15.00,2016-02-12 15:51:00,
2016-02-12 10:52:00,20.3,20.3,30.07,SSW,209,6.0,6.0,100,0.00,,OVC120,0.00,201.00,VWS V15.00,2016-02-12 15:52:00,
2016-02-12 10:53:00,21.0,21.0,30.06,SSW,209,6.0,6.0,100,0.00,,OVC080,0.00,252.00,VWS V15.00,2016-02-12 15:53:00,
2016-02-12 10:54:00,21.0,21.0,30.06,SSW,209,4.0,6.0,100,0.00,,OVC080,0.00,248.00,VWS V15.00,2016-02-12 15:54:00,
2016-02-12 10:55:00,21.0,21.0,30.06,SSW,209,3.0,8.0,100,0.00,,OVC080,0.00,241.00,VWS V15.00,2016-02-12 15:55:00,
2016-02-12 10:56:00,21.1,21.1,30.06,SSW,209,5.0,8.0,100,0.00,,OVC080,0.00,234.00,VWS V15.00,2016-02-12 15:56:00,
2016-02-12 10:57:00,21.1,21.1,30.06,SSW,209,1.0,8.0,100,0.00,,OVC080,0.00,227.00,VWS V15.00,2016-02-12 15:57:00,
2016-02-12 10:58:00,21.1,21.1,30.06,SSW,209,3.0,8.0,100,0.00,,OVC080,0.00,229.00,VWS V15.00,2016-02-12 15:58:00,
2016-02-12 11:01:00,21.3,21.3,30.06,SSW,209,0.0,1.0,100,0.00,,OVC080,0.00,241.00,VWS V15.00,2016-02-12 16:01:00,
2016-02-12 11:02:00,20.8,20.8,30.06,SSW,209,1.0,2.0,100,0.00,,OVC080,0.00,252.00,VWS V15.00,2016-02-12 16:02:00,
2016-02-12 11:03:00,21.4,21.4,30.06,SSW,209,8.0,8.0,100,0.00,,OVC080,0.00,255.00,VWS V15.00,2016-02-12 16:03:00,
2016-02-12 11:04:00,21.4,21.4,30.06,SSW,209,2.0,8.0,100,0.00,,OVC080,0.00,257.00,VWS V15.00,2016-02-12 16:04:00,
2016-02-12 11:06:00,21.6,21.6,30.06,SSW,209,1.0,8.0,100,0.00,,OVC080,0.00,259.00,VWS V15.00,2016-02-12 16:06:00,
2016-02-12 11:07:00,21.1,21.1,30.06,SSW,209,2.0,8.0,100,0.00,,OVC080,0.00,227.00,VWS V15.00,2016-02-12 16:07:00,
2016-02-12 11:08:00,21.8,21.8,30.06,SSW,209,0.0,8.0,100,0.00,,OVC080,0.00,255.00,VWS V15.00,2016-02-12 16:08:00,
2016-02-12 11:09:00,21.8,21.8,30.06,SSW,209,1.0,8.0,100,0.00,,OVC080,0.00,250.00,VWS V15.00,2016-02-12 16:09:00,
2016-02-12 11:10:00,21.8,21.8,30.06,SSW,209,2.0,2.0,100,0.00,,OVC080,0.00,246.00,VWS V15.00,2016-02-12 16:10:00,
2016-02-12 11:11:00,21.9,21.9,30.06,SSW,209,2.0,8.0,100,0.00,,OVC080,0.00,243.00,VWS V15.00,2016-02-12 16:11:00,
2016-02-12 11:12:00,21.4,21.4,30.06,SSW,209,0.0,1.0,100,0.00,,OVC080,0.00,252.00,VWS V15.00,2016-02-12 16:12:00,
2016-02-12 11:13:00,21.8,21.8,30.06,SSW,209,0.0,8.0,100,0.00,,OVC080,0.00,232.00,VWS V15.00,2016-02-12 16:13:00,
2016-02-12 11:14:00,21.8,21.8,30.05,SSW,209,2.0,8.0,100,0.00,,OVC080,0.00,230.00,VWS V15.00,2016-02-12 16:14:00,
2016-02-12 11:15:00,21.9,21.9,30.05,SSW,209,0.0,8.0,100,0.00,,OVC080,0.00,229.00,VWS V15.00,2016-02-12 16:15:00,
2016-02-12 11:16:00,21.9,21.9,30.05,SSW,209,3.0,8.0,100,0.00,,OVC080,0.00,229.00,VWS V15.00,2016-02-12 16:16:00,
2016-02-12 11:17:00,21.9,21.9,30.05,SSW,209,2.0,8.0,100,0.00,,OVC080,0.00,241.00,VWS V15.00,2016-02-12 16:17:00,
2016-02-12 11:19:00,21.9,21.9,30.05,SSW,209,2.0,8.0,100,0.00,,OVC080,0.00,250.00,VWS V15.00,2016-02-12 16:19:00,
2016-02-12 11:20:00,22.1,22.1,30.05,SSW,209,1.0,6.0,100,0.00,,OVC080,0.00,264.00,VWS V15.00,2016-02-12 16:20:00,
2016-02-12 11:21:00,22.1,22.1,30.05,SSW,209,5.0,6.0,100,0.00,,OVC080,0.00,271.00,VWS V15.00,2016-02-12 16:21:00,
2016-02-12 11:22:00,21.8,21.8,30.06,SSW,209,5.0,8.0,100,0.00,,OVC080,0.00,236.00,VWS V15.00,2016-02-12 16:22:00,
2016-02-12 11:23:00,22.2,22.2,30.05,SSW,209,0.0,6.0,100,0.00,,OVC080,0.00,273.00,VWS V15.00,2016-02-12 16:23:00,
2016-02-12 11:24:00,22.2,22.2,30.05,SSW,209,1.0,6.0,100,0.00,,OVC080,0.00,269.00,VWS V15.00,2016-02-12 16:24:00,
2016-02-12 11:27:00,21.9,21.9,30.05,SSW,209,1.0,8.0,100,0.00,,OVC080,0.00,241.00,VWS V15.00,2016-02-12 16:27:00,
2016-02-12 11:32:00,22.1,22.1,30.05,SSW,209,1.0,6.0,100,0.00,,OVC080,0.00,276.00,VWS V15.00,2016-02-12 16:32:00,